<?xml version="1.0" encoding="UTF-8" standalone="no" ?>
<gpx xmlns="http://www.topografix.com/GPX/1/1" xmlns:xsi="http://www.w3.org/2001/XMLSchema-instance" xsi:schemaLocation="http://www.topografix.com/GPX/1/1 http://www.topografix.com/GPX/1/1/gpx.xsd" version="1.1" creator="VisuGPX - https://www.visugpx.com">
  <metadata>
    <name>De la Plage de Gigaro au Cap Taillat</name>
    <desc><![CDATA[Grâce au conservatoire du littoral, le Cap Lardier n'est pas devenu le Cap Bénat. Accomplir cette ballade, proposée par l'office du tourisme de la Croix Valmer, permettra de s'émerveiller sur la diversité de la faune et de la flore du littoral méditerranéen, ainsi que mesurer l'ampleur de massacres passés.
Partis de la plage de Gigaro, progresser vers le cap Lardier, puis la Cap Taillat. Le dolmen de Briande marque le terme de la marche. Après avoir fait le tour du Cap Taillat, rentrer par les vignes à droite de la plage de Briande.
]]></desc>
  </metadata>
  <trk>
    <name><![CDATA[ACTIVE LOG083407]]></name>
    <trkseg>
      <trkpt lat="43.18372" lon="6.60081">
        <ele>14.941</ele>
        <time>2010-05-01T06:34:07Z</time>
      </trkpt>
      <trkpt lat="43.18362" lon="6.60088">
        <ele>6.135</ele>
        <time>2010-05-01T06:34:59Z</time>
      </trkpt>
      <trkpt lat="43.18359" lon="6.6009">
        <ele>4.696</ele>
        <time>2010-05-01T06:35:17Z</time>
      </trkpt>
      <trkpt lat="43.18358" lon="6.60092">
        <ele>4.632</ele>
        <time>2010-05-01T06:35:19Z</time>
      </trkpt>
      <trkpt lat="43.18358" lon="6.60097">
        <ele>5.141</ele>
        <time>2010-05-01T06:35:22Z</time>
      </trkpt>
      <trkpt lat="43.18358" lon="6.60104">
        <ele>5.206</ele>
        <time>2010-05-01T06:35:28Z</time>
      </trkpt>
      <trkpt lat="43.18352" lon="6.60128">
        <ele>2.14</ele>
        <time>2010-05-01T06:35:53Z</time>
      </trkpt>
      <trkpt lat="43.1835" lon="6.60133">
        <ele>1.195</ele>
        <time>2010-05-01T06:35:56Z</time>
      </trkpt>
      <trkpt lat="43.18345" lon="6.60138">
        <ele>-2.293</ele>
        <time>2010-05-01T06:36:18Z</time>
      </trkpt>
      <trkpt lat="43.18335" lon="6.60142">
        <ele>-1.667</ele>
        <time>2010-05-01T06:36:48Z</time>
      </trkpt>
      <trkpt lat="43.18331" lon="6.6014">
        <ele>-0.974</ele>
        <time>2010-05-01T06:36:51Z</time>
      </trkpt>
      <trkpt lat="43.18318" lon="6.60142">
        <ele>-0.711</ele>
        <time>2010-05-01T06:37:03Z</time>
      </trkpt>
      <trkpt lat="43.18309" lon="6.60149">
        <ele>-2.097</ele>
        <time>2010-05-01T06:37:11Z</time>
      </trkpt>
      <trkpt lat="43.183" lon="6.60153">
        <ele>-2.911</ele>
        <time>2010-05-01T06:37:25Z</time>
      </trkpt>
      <trkpt lat="43.18299" lon="6.60162">
        <ele>-3.375</ele>
        <time>2010-05-01T06:37:32Z</time>
      </trkpt>
      <trkpt lat="43.18295" lon="6.60174">
        <ele>-4.088</ele>
        <time>2010-05-01T06:37:40Z</time>
      </trkpt>
      <trkpt lat="43.18295" lon="6.60196">
        <ele>-5.37</ele>
        <time>2010-05-01T06:37:58Z</time>
      </trkpt>
      <trkpt lat="43.18293" lon="6.60201">
        <ele>-5.954</ele>
        <time>2010-05-01T06:38:03Z</time>
      </trkpt>
      <trkpt lat="43.18285" lon="6.60206">
        <ele>-7.106</ele>
        <time>2010-05-01T06:38:17Z</time>
      </trkpt>
      <trkpt lat="43.1828" lon="6.60203">
        <ele>-7.293</ele>
        <time>2010-05-01T06:38:21Z</time>
      </trkpt>
      <trkpt lat="43.18258" lon="6.60209">
        <ele>-7.036</ele>
        <time>2010-05-01T06:38:42Z</time>
      </trkpt>
      <trkpt lat="43.18256" lon="6.60208">
        <ele>-7.192</ele>
        <time>2010-05-01T06:38:44Z</time>
      </trkpt>
      <trkpt lat="43.18251" lon="6.60206">
        <ele>-6.787</ele>
        <time>2010-05-01T06:38:47Z</time>
      </trkpt>
      <trkpt lat="43.18245" lon="6.60211">
        <ele>-6.157</ele>
        <time>2010-05-01T06:38:53Z</time>
      </trkpt>
      <trkpt lat="43.18233" lon="6.60214">
        <ele>-2.77</ele>
        <time>2010-05-01T06:39:17Z</time>
      </trkpt>
      <trkpt lat="43.1822" lon="6.60229">
        <ele>-0.463</ele>
        <time>2010-05-01T06:39:42Z</time>
      </trkpt>
      <trkpt lat="43.18203" lon="6.60232">
        <ele>4.322</ele>
        <time>2010-05-01T06:40:12Z</time>
      </trkpt>
      <trkpt lat="43.18198" lon="6.60218">
        <ele>5.715</ele>
        <time>2010-05-01T06:40:32Z</time>
      </trkpt>
      <trkpt lat="43.18193" lon="6.60226">
        <ele>5.21</ele>
        <time>2010-05-01T06:40:42Z</time>
      </trkpt>
      <trkpt lat="43.18185" lon="6.60234">
        <ele>3.917</ele>
        <time>2010-05-01T06:40:54Z</time>
      </trkpt>
      <trkpt lat="43.18185" lon="6.60241">
        <ele>3.341</ele>
        <time>2010-05-01T06:40:58Z</time>
      </trkpt>
      <trkpt lat="43.18177" lon="6.60254">
        <ele>2.136</ele>
        <time>2010-05-01T06:41:11Z</time>
      </trkpt>
      <trkpt lat="43.18158" lon="6.60245">
        <ele>0.248</ele>
        <time>2010-05-01T06:41:34Z</time>
      </trkpt>
      <trkpt lat="43.18156" lon="6.60245">
        <ele>0.316</ele>
        <time>2010-05-01T06:41:39Z</time>
      </trkpt>
      <trkpt lat="43.18154" lon="6.60244">
        <ele>0.414</ele>
        <time>2010-05-01T06:41:41Z</time>
      </trkpt>
      <trkpt lat="43.18151" lon="6.60243">
        <ele>0.695</ele>
        <time>2010-05-01T06:41:43Z</time>
      </trkpt>
      <trkpt lat="43.18141" lon="6.60258">
        <ele>4.752</ele>
        <time>2010-05-01T06:42:05Z</time>
      </trkpt>
      <trkpt lat="43.18129" lon="6.60269">
        <ele>3.867</ele>
        <time>2010-05-01T06:42:26Z</time>
      </trkpt>
      <trkpt lat="43.18128" lon="6.60269">
        <ele>3.669</ele>
        <time>2010-05-01T06:42:27Z</time>
      </trkpt>
      <trkpt lat="43.18108" lon="6.60284">
        <ele>2.428</ele>
        <time>2010-05-01T06:42:52Z</time>
      </trkpt>
      <trkpt lat="43.18106" lon="6.60284">
        <ele>2.627</ele>
        <time>2010-05-01T06:42:54Z</time>
      </trkpt>
      <trkpt lat="43.18092" lon="6.60288">
        <ele>0.652</ele>
        <time>2010-05-01T06:43:09Z</time>
      </trkpt>
      <trkpt lat="43.18081" lon="6.60301">
        <ele>0.667</ele>
        <time>2010-05-01T06:43:29Z</time>
      </trkpt>
      <trkpt lat="43.18075" lon="6.60301">
        <ele>0.632</ele>
        <time>2010-05-01T06:43:57Z</time>
      </trkpt>
      <trkpt lat="43.18069" lon="6.603">
        <ele>0.138</ele>
        <time>2010-05-01T06:44:23Z</time>
      </trkpt>
      <trkpt lat="43.18066" lon="6.603">
        <ele>-0.658</ele>
        <time>2010-05-01T06:44:40Z</time>
      </trkpt>
      <trkpt lat="43.18064" lon="6.60302">
        <ele>-0.885</ele>
        <time>2010-05-01T06:44:42Z</time>
      </trkpt>
      <trkpt lat="43.18053" lon="6.60315">
        <ele>-0.595</ele>
        <time>2010-05-01T06:45:03Z</time>
      </trkpt>
      <trkpt lat="43.18036" lon="6.60311">
        <ele>0.411</ele>
        <time>2010-05-01T06:45:25Z</time>
      </trkpt>
      <trkpt lat="43.18033" lon="6.60308">
        <ele>1.433</ele>
        <time>2010-05-01T06:45:29Z</time>
      </trkpt>
      <trkpt lat="43.18018" lon="6.60309">
        <ele>1.454</ele>
        <time>2010-05-01T06:45:52Z</time>
      </trkpt>
      <trkpt lat="43.18012" lon="6.60301">
        <ele>1.067</ele>
        <time>2010-05-01T06:46:11Z</time>
      </trkpt>
      <trkpt lat="43.18005" lon="6.60296">
        <ele>3.139</ele>
        <time>2010-05-01T06:46:19Z</time>
      </trkpt>
      <trkpt lat="43.17994" lon="6.60293">
        <ele>4.833</ele>
        <time>2010-05-01T06:46:33Z</time>
      </trkpt>
      <trkpt lat="43.17974" lon="6.60292">
        <ele>8.727</ele>
        <time>2010-05-01T06:46:59Z</time>
      </trkpt>
      <trkpt lat="43.17956" lon="6.60293">
        <ele>12.865</ele>
        <time>2010-05-01T06:47:21Z</time>
      </trkpt>
      <trkpt lat="43.17954" lon="6.60292">
        <ele>13.73</ele>
        <time>2010-05-01T06:47:24Z</time>
      </trkpt>
      <trkpt lat="43.17948" lon="6.60294">
        <ele>14.418</ele>
        <time>2010-05-01T06:47:31Z</time>
      </trkpt>
      <trkpt lat="43.17924" lon="6.60294">
        <ele>15.388</ele>
        <time>2010-05-01T06:47:54Z</time>
      </trkpt>
      <trkpt lat="43.17919" lon="6.60299">
        <ele>16.518</ele>
        <time>2010-05-01T06:48:05Z</time>
      </trkpt>
      <trkpt lat="43.17915" lon="6.60294">
        <ele>16.455</ele>
        <time>2010-05-01T06:48:09Z</time>
      </trkpt>
      <trkpt lat="43.1791" lon="6.60295">
        <ele>17.147</ele>
        <time>2010-05-01T06:48:15Z</time>
      </trkpt>
      <trkpt lat="43.17903" lon="6.60302">
        <ele>18.192</ele>
        <time>2010-05-01T06:48:23Z</time>
      </trkpt>
      <trkpt lat="43.17897" lon="6.60316">
        <ele>19.498</ele>
        <time>2010-05-01T06:48:35Z</time>
      </trkpt>
      <trkpt lat="43.17892" lon="6.60327">
        <ele>20.75</ele>
        <time>2010-05-01T06:48:46Z</time>
      </trkpt>
      <trkpt lat="43.1789" lon="6.60338">
        <ele>20.688</ele>
        <time>2010-05-01T06:48:57Z</time>
      </trkpt>
      <trkpt lat="43.17881" lon="6.60342">
        <ele>23.245</ele>
        <time>2010-05-01T06:49:08Z</time>
      </trkpt>
      <trkpt lat="43.17866" lon="6.60338">
        <ele>24.323</ele>
        <time>2010-05-01T06:49:22Z</time>
      </trkpt>
      <trkpt lat="43.1786" lon="6.60341">
        <ele>22.97</ele>
        <time>2010-05-01T06:49:28Z</time>
      </trkpt>
      <trkpt lat="43.17853" lon="6.60346">
        <ele>23.341</ele>
        <time>2010-05-01T06:49:37Z</time>
      </trkpt>
      <trkpt lat="43.17846" lon="6.60364">
        <ele>20.656</ele>
        <time>2010-05-01T06:49:56Z</time>
      </trkpt>
      <trkpt lat="43.17842" lon="6.60372">
        <ele>19.622</ele>
        <time>2010-05-01T06:50:01Z</time>
      </trkpt>
      <trkpt lat="43.17839" lon="6.60371">
        <ele>19.317</ele>
        <time>2010-05-01T06:50:04Z</time>
      </trkpt>
      <trkpt lat="43.17832" lon="6.60379">
        <ele>18.159</ele>
        <time>2010-05-01T06:50:12Z</time>
      </trkpt>
      <trkpt lat="43.17829" lon="6.60376">
        <ele>18.075</ele>
        <time>2010-05-01T06:50:16Z</time>
      </trkpt>
      <trkpt lat="43.17823" lon="6.60375">
        <ele>16.27</ele>
        <time>2010-05-01T06:50:24Z</time>
      </trkpt>
      <trkpt lat="43.17814" lon="6.60378">
        <ele>12.956</ele>
        <time>2010-05-01T06:50:38Z</time>
      </trkpt>
      <trkpt lat="43.17801" lon="6.60388">
        <ele>8.87</ele>
        <time>2010-05-01T06:50:52Z</time>
      </trkpt>
      <trkpt lat="43.17798" lon="6.60391">
        <ele>7.626</ele>
        <time>2010-05-01T06:50:56Z</time>
      </trkpt>
      <trkpt lat="43.17786" lon="6.60409">
        <ele>2.373</ele>
        <time>2010-05-01T06:51:14Z</time>
      </trkpt>
      <trkpt lat="43.17772" lon="6.60416">
        <ele>1.815</ele>
        <time>2010-05-01T06:51:31Z</time>
      </trkpt>
      <trkpt lat="43.1777" lon="6.60418">
        <ele>1.635</ele>
        <time>2010-05-01T06:51:33Z</time>
      </trkpt>
      <trkpt lat="43.17755" lon="6.60421">
        <ele>4.685</ele>
        <time>2010-05-01T06:51:55Z</time>
      </trkpt>
      <trkpt lat="43.17748" lon="6.60426">
        <ele>8.595</ele>
        <time>2010-05-01T06:52:05Z</time>
      </trkpt>
      <trkpt lat="43.17727" lon="6.60422">
        <ele>8.824</ele>
        <time>2010-05-01T06:52:29Z</time>
      </trkpt>
      <trkpt lat="43.17724" lon="6.60416">
        <ele>9.298</ele>
        <time>2010-05-01T06:52:33Z</time>
      </trkpt>
      <trkpt lat="43.177" lon="6.60414">
        <ele>10.257</ele>
        <time>2010-05-01T06:52:57Z</time>
      </trkpt>
      <trkpt lat="43.17692" lon="6.60418">
        <ele>11.54</ele>
        <time>2010-05-01T06:53:10Z</time>
      </trkpt>
      <trkpt lat="43.17686" lon="6.60425">
        <ele>12.398</ele>
        <time>2010-05-01T06:53:18Z</time>
      </trkpt>
      <trkpt lat="43.17682" lon="6.6044">
        <ele>11.603</ele>
        <time>2010-05-01T06:53:31Z</time>
      </trkpt>
      <trkpt lat="43.17669" lon="6.60446">
        <ele>6.605</ele>
        <time>2010-05-01T06:53:52Z</time>
      </trkpt>
      <trkpt lat="43.17655" lon="6.60458">
        <ele>7.116</ele>
        <time>2010-05-01T06:54:12Z</time>
      </trkpt>
      <trkpt lat="43.17645" lon="6.60452">
        <ele>7.555</ele>
        <time>2010-05-01T06:54:24Z</time>
      </trkpt>
      <trkpt lat="43.17626" lon="6.60451">
        <ele>6.937</ele>
        <time>2010-05-01T06:54:50Z</time>
      </trkpt>
      <trkpt lat="43.17613" lon="6.60454">
        <ele>6.694</ele>
        <time>2010-05-01T06:55:03Z</time>
      </trkpt>
      <trkpt lat="43.1761" lon="6.60456">
        <ele>7.042</ele>
        <time>2010-05-01T06:55:07Z</time>
      </trkpt>
      <trkpt lat="43.17596" lon="6.60455">
        <ele>8.993</ele>
        <time>2010-05-01T06:55:26Z</time>
      </trkpt>
      <trkpt lat="43.17585" lon="6.60457">
        <ele>11.13</ele>
        <time>2010-05-01T06:55:40Z</time>
      </trkpt>
      <trkpt lat="43.17577" lon="6.60456">
        <ele>11.341</ele>
        <time>2010-05-01T06:55:49Z</time>
      </trkpt>
      <trkpt lat="43.17566" lon="6.60459">
        <ele>10.236</ele>
        <time>2010-05-01T06:56:03Z</time>
      </trkpt>
      <trkpt lat="43.17565" lon="6.6046">
        <ele>10.392</ele>
        <time>2010-05-01T06:56:05Z</time>
      </trkpt>
      <trkpt lat="43.1755" lon="6.6047">
        <ele>11.531</ele>
        <time>2010-05-01T06:56:28Z</time>
      </trkpt>
      <trkpt lat="43.17536" lon="6.6047">
        <ele>7.719</ele>
        <time>2010-05-01T06:56:52Z</time>
      </trkpt>
      <trkpt lat="43.17533" lon="6.60457">
        <ele>4.724</ele>
        <time>2010-05-01T06:57:04Z</time>
      </trkpt>
      <trkpt lat="43.17528" lon="6.60446">
        <ele>1.614</ele>
        <time>2010-05-01T06:57:17Z</time>
      </trkpt>
      <trkpt lat="43.17515" lon="6.6043">
        <ele>5.224</ele>
        <time>2010-05-01T06:57:42Z</time>
      </trkpt>
      <trkpt lat="43.17505" lon="6.60422">
        <ele>4.397</ele>
        <time>2010-05-01T06:58:09Z</time>
      </trkpt>
      <trkpt lat="43.17497" lon="6.60387">
        <ele>2.024</ele>
        <time>2010-05-01T06:58:32Z</time>
      </trkpt>
      <trkpt lat="43.17497" lon="6.60383">
        <ele>2.1</ele>
        <time>2010-05-01T06:58:35Z</time>
      </trkpt>
      <trkpt lat="43.17494" lon="6.60373">
        <ele>0.188</ele>
        <time>2010-05-01T06:58:45Z</time>
      </trkpt>
      <trkpt lat="43.17493" lon="6.60369">
        <ele>-1.568</ele>
        <time>2010-05-01T06:58:48Z</time>
      </trkpt>
      <trkpt lat="43.17483" lon="6.60338">
        <ele>-1.071</ele>
        <time>2010-05-01T06:59:14Z</time>
      </trkpt>
      <trkpt lat="43.1748" lon="6.60318">
        <ele>2.44</ele>
        <time>2010-05-01T06:59:37Z</time>
      </trkpt>
      <trkpt lat="43.17469" lon="6.60308">
        <ele>4.484</ele>
        <time>2010-05-01T07:00:00Z</time>
      </trkpt>
      <trkpt lat="43.17448" lon="6.60309">
        <ele>8.387</ele>
        <time>2010-05-01T07:00:28Z</time>
      </trkpt>
      <trkpt lat="43.17439" lon="6.60319">
        <ele>10.404</ele>
        <time>2010-05-01T07:00:56Z</time>
      </trkpt>
      <trkpt lat="43.17429" lon="6.6032">
        <ele>12.721</ele>
        <time>2010-05-01T07:01:08Z</time>
      </trkpt>
      <trkpt lat="43.17419" lon="6.60324">
        <ele>13.674</ele>
        <time>2010-05-01T07:01:20Z</time>
      </trkpt>
      <trkpt lat="43.17412" lon="6.6034">
        <ele>18.144</ele>
        <time>2010-05-01T07:01:41Z</time>
      </trkpt>
      <trkpt lat="43.17407" lon="6.60351">
        <ele>17.696</ele>
        <time>2010-05-01T07:01:54Z</time>
      </trkpt>
      <trkpt lat="43.17406" lon="6.60372">
        <ele>17.601</ele>
        <time>2010-05-01T07:02:13Z</time>
      </trkpt>
      <trkpt lat="43.17402" lon="6.6038">
        <ele>19.504</ele>
        <time>2010-05-01T07:02:22Z</time>
      </trkpt>
      <trkpt lat="43.17399" lon="6.60398">
        <ele>18.887</ele>
        <time>2010-05-01T07:02:44Z</time>
      </trkpt>
      <trkpt lat="43.17397" lon="6.60407">
        <ele>18.644</ele>
        <time>2010-05-01T07:03:20Z</time>
      </trkpt>
      <trkpt lat="43.1739" lon="6.60426">
        <ele>19.748</ele>
        <time>2010-05-01T07:03:44Z</time>
      </trkpt>
      <trkpt lat="43.17389" lon="6.60428">
        <ele>19.495</ele>
        <time>2010-05-01T07:03:48Z</time>
      </trkpt>
      <trkpt lat="43.1739" lon="6.60448">
        <ele>19.536</ele>
        <time>2010-05-01T07:04:14Z</time>
      </trkpt>
      <trkpt lat="43.1739" lon="6.60449">
        <ele>19.383</ele>
        <time>2010-05-01T07:04:15Z</time>
      </trkpt>
      <trkpt lat="43.17387" lon="6.60465">
        <ele>15.513</ele>
        <time>2010-05-01T07:04:35Z</time>
      </trkpt>
      <trkpt lat="43.17387" lon="6.60468">
        <ele>15.78</ele>
        <time>2010-05-01T07:04:37Z</time>
      </trkpt>
      <trkpt lat="43.17386" lon="6.60477">
        <ele>13.52</ele>
        <time>2010-05-01T07:04:53Z</time>
      </trkpt>
      <trkpt lat="43.1739" lon="6.60498">
        <ele>13.628</ele>
        <time>2010-05-01T07:05:12Z</time>
      </trkpt>
      <trkpt lat="43.17385" lon="6.60521">
        <ele>13.555</ele>
        <time>2010-05-01T07:05:37Z</time>
      </trkpt>
      <trkpt lat="43.17383" lon="6.60533">
        <ele>14.605</ele>
        <time>2010-05-01T07:05:48Z</time>
      </trkpt>
      <trkpt lat="43.17379" lon="6.60543">
        <ele>14.013</ele>
        <time>2010-05-01T07:05:59Z</time>
      </trkpt>
      <trkpt lat="43.17376" lon="6.60563">
        <ele>12.62</ele>
        <time>2010-05-01T07:06:20Z</time>
      </trkpt>
      <trkpt lat="43.17374" lon="6.6059">
        <ele>9.226</ele>
        <time>2010-05-01T07:06:45Z</time>
      </trkpt>
      <trkpt lat="43.17383" lon="6.60607">
        <ele>15.321</ele>
        <time>2010-05-01T07:07:10Z</time>
      </trkpt>
      <trkpt lat="43.1738" lon="6.60625">
        <ele>18.355</ele>
        <time>2010-05-01T07:07:34Z</time>
      </trkpt>
      <trkpt lat="43.17383" lon="6.60637">
        <ele>18.218</ele>
        <time>2010-05-01T07:07:58Z</time>
      </trkpt>
      <trkpt lat="43.17387" lon="6.60659">
        <ele>25.404</ele>
        <time>2010-05-01T07:08:30Z</time>
      </trkpt>
      <trkpt lat="43.17386" lon="6.60694">
        <ele>28.1</ele>
        <time>2010-05-01T07:08:54Z</time>
      </trkpt>
      <trkpt lat="43.17381" lon="6.60721">
        <ele>28.031</ele>
        <time>2010-05-01T07:09:19Z</time>
      </trkpt>
      <trkpt lat="43.17375" lon="6.60736">
        <ele>27.308</ele>
        <time>2010-05-01T07:09:41Z</time>
      </trkpt>
      <trkpt lat="43.17372" lon="6.60764">
        <ele>25.283</ele>
        <time>2010-05-01T07:10:08Z</time>
      </trkpt>
      <trkpt lat="43.17367" lon="6.6078">
        <ele>22.689</ele>
        <time>2010-05-01T07:10:27Z</time>
      </trkpt>
      <trkpt lat="43.17362" lon="6.60783">
        <ele>21.737</ele>
        <time>2010-05-01T07:10:36Z</time>
      </trkpt>
      <trkpt lat="43.1735" lon="6.60796">
        <ele>20.279</ele>
        <time>2010-05-01T07:10:55Z</time>
      </trkpt>
      <trkpt lat="43.17351" lon="6.60803">
        <ele>17.265</ele>
        <time>2010-05-01T07:11:13Z</time>
      </trkpt>
      <trkpt lat="43.17344" lon="6.60811">
        <ele>10.671</ele>
        <time>2010-05-01T07:11:43Z</time>
      </trkpt>
      <trkpt lat="43.17335" lon="6.60806">
        <ele>6.058</ele>
        <time>2010-05-01T07:12:11Z</time>
      </trkpt>
      <trkpt lat="43.17327" lon="6.608">
        <ele>4.911</ele>
        <time>2010-05-01T07:12:35Z</time>
      </trkpt>
      <trkpt lat="43.17326" lon="6.6081">
        <ele>5.243</ele>
        <time>2010-05-01T07:12:58Z</time>
      </trkpt>
      <trkpt lat="43.17325" lon="6.60812">
        <ele>5.538</ele>
        <time>2010-05-01T07:13:00Z</time>
      </trkpt>
      <trkpt lat="43.17324" lon="6.60816">
        <ele>5.702</ele>
        <time>2010-05-01T07:13:11Z</time>
      </trkpt>
      <trkpt lat="43.1732" lon="6.6081">
        <ele>4.414</ele>
        <time>2010-05-01T07:13:36Z</time>
      </trkpt>
      <trkpt lat="43.17316" lon="6.6081">
        <ele>3.357</ele>
        <time>2010-05-01T07:13:43Z</time>
      </trkpt>
      <trkpt lat="43.17308" lon="6.60826">
        <ele>-0.123</ele>
        <time>2010-05-01T07:14:03Z</time>
      </trkpt>
      <trkpt lat="43.17301" lon="6.60834">
        <ele>1.436</ele>
        <time>2010-05-01T07:14:24Z</time>
      </trkpt>
      <trkpt lat="43.17298" lon="6.60839">
        <ele>2.291</ele>
        <time>2010-05-01T07:14:46Z</time>
      </trkpt>
      <trkpt lat="43.1728" lon="6.60841">
        <ele>1.833</ele>
        <time>2010-05-01T07:15:09Z</time>
      </trkpt>
      <trkpt lat="43.17274" lon="6.60833">
        <ele>1.16</ele>
        <time>2010-05-01T07:15:24Z</time>
      </trkpt>
      <trkpt lat="43.17269" lon="6.60829">
        <ele>1.967</ele>
        <time>2010-05-01T07:15:44Z</time>
      </trkpt>
      <trkpt lat="43.17266" lon="6.60827">
        <ele>-0.272</ele>
        <time>2010-05-01T07:16:07Z</time>
      </trkpt>
      <trkpt lat="43.17266" lon="6.60829">
        <ele>-0.709</ele>
        <time>2010-05-01T07:28:35Z</time>
      </trkpt>
      <trkpt lat="43.17267" lon="6.60831">
        <ele>0.415</ele>
        <time>2010-05-01T07:29:00Z</time>
      </trkpt>
      <trkpt lat="43.17254" lon="6.60842">
        <ele>0.715</ele>
        <time>2010-05-01T07:29:28Z</time>
      </trkpt>
      <trkpt lat="43.17238" lon="6.6086">
        <ele>1.966</ele>
        <time>2010-05-01T07:29:52Z</time>
      </trkpt>
      <trkpt lat="43.17226" lon="6.60872">
        <ele>4.211</ele>
        <time>2010-05-01T07:30:15Z</time>
      </trkpt>
      <trkpt lat="43.17217" lon="6.60875">
        <ele>9.428</ele>
        <time>2010-05-01T07:30:28Z</time>
      </trkpt>
      <trkpt lat="43.17211" lon="6.60876">
        <ele>11.875</ele>
        <time>2010-05-01T07:30:34Z</time>
      </trkpt>
      <trkpt lat="43.17189" lon="6.60871">
        <ele>13.017</ele>
        <time>2010-05-01T07:30:56Z</time>
      </trkpt>
      <trkpt lat="43.17182" lon="6.60873">
        <ele>13.763</ele>
        <time>2010-05-01T07:31:18Z</time>
      </trkpt>
      <trkpt lat="43.17175" lon="6.6087">
        <ele>14.306</ele>
        <time>2010-05-01T07:31:25Z</time>
      </trkpt>
      <trkpt lat="43.17171" lon="6.60868">
        <ele>14.506</ele>
        <time>2010-05-01T07:31:29Z</time>
      </trkpt>
      <trkpt lat="43.17155" lon="6.60861">
        <ele>12.167</ele>
        <time>2010-05-01T07:31:50Z</time>
      </trkpt>
      <trkpt lat="43.17142" lon="6.60838">
        <ele>14.456</ele>
        <time>2010-05-01T07:32:18Z</time>
      </trkpt>
      <trkpt lat="43.17134" lon="6.60832">
        <ele>15.649</ele>
        <time>2010-05-01T07:32:35Z</time>
      </trkpt>
      <trkpt lat="43.17122" lon="6.60844">
        <ele>19.014</ele>
        <time>2010-05-01T07:33:14Z</time>
      </trkpt>
      <trkpt lat="43.171" lon="6.60855">
        <ele>23.301</ele>
        <time>2010-05-01T07:33:54Z</time>
      </trkpt>
      <trkpt lat="43.17079" lon="6.60861">
        <ele>31.991</ele>
        <time>2010-05-01T07:34:38Z</time>
      </trkpt>
      <trkpt lat="43.17069" lon="6.60871">
        <ele>36.116</ele>
        <time>2010-05-01T07:35:04Z</time>
      </trkpt>
      <trkpt lat="43.17059" lon="6.60878">
        <ele>41.02</ele>
        <time>2010-05-01T07:35:27Z</time>
      </trkpt>
      <trkpt lat="43.17055" lon="6.60879">
        <ele>42.749</ele>
        <time>2010-05-01T07:35:40Z</time>
      </trkpt>
      <trkpt lat="43.17045" lon="6.60893">
        <ele>45.531</ele>
        <time>2010-05-01T07:36:02Z</time>
      </trkpt>
      <trkpt lat="43.17032" lon="6.60906">
        <ele>48.909</ele>
        <time>2010-05-01T07:36:24Z</time>
      </trkpt>
      <trkpt lat="43.1703" lon="6.60932">
        <ele>51.59</ele>
        <time>2010-05-01T07:36:48Z</time>
      </trkpt>
      <trkpt lat="43.17027" lon="6.60947">
        <ele>54.781</ele>
        <time>2010-05-01T07:37:04Z</time>
      </trkpt>
      <trkpt lat="43.17013" lon="6.60962">
        <ele>54.174</ele>
        <time>2010-05-01T07:37:29Z</time>
      </trkpt>
      <trkpt lat="43.16987" lon="6.60968">
        <ele>49.773</ele>
        <time>2010-05-01T07:37:58Z</time>
      </trkpt>
      <trkpt lat="43.1697" lon="6.60981">
        <ele>52.834</ele>
        <time>2010-05-01T07:38:20Z</time>
      </trkpt>
      <trkpt lat="43.16958" lon="6.60999">
        <ele>54.815</ele>
        <time>2010-05-01T07:38:44Z</time>
      </trkpt>
      <trkpt lat="43.16949" lon="6.6101">
        <ele>54.213</ele>
        <time>2010-05-01T07:39:04Z</time>
      </trkpt>
      <trkpt lat="43.16948" lon="6.61035">
        <ele>57.163</ele>
        <time>2010-05-01T07:39:32Z</time>
      </trkpt>
      <trkpt lat="43.16934" lon="6.6105">
        <ele>67.298</ele>
        <time>2010-05-01T07:40:02Z</time>
      </trkpt>
      <trkpt lat="43.16937" lon="6.61063">
        <ele>72.04</ele>
        <time>2010-05-01T07:40:26Z</time>
      </trkpt>
      <trkpt lat="43.16932" lon="6.61079">
        <ele>79.626</ele>
        <time>2010-05-01T07:40:58Z</time>
      </trkpt>
      <trkpt lat="43.16923" lon="6.61091">
        <ele>84.174</ele>
        <time>2010-05-01T07:41:21Z</time>
      </trkpt>
      <trkpt lat="43.1693" lon="6.61109">
        <ele>89.895</ele>
        <time>2010-05-01T07:41:55Z</time>
      </trkpt>
      <trkpt lat="43.16932" lon="6.6112">
        <ele>91.33</ele>
        <time>2010-05-01T07:42:16Z</time>
      </trkpt>
      <trkpt lat="43.16935" lon="6.61131">
        <ele>94.48</ele>
        <time>2010-05-01T07:42:33Z</time>
      </trkpt>
      <trkpt lat="43.16938" lon="6.61146">
        <ele>96.14</ele>
        <time>2010-05-01T07:42:56Z</time>
      </trkpt>
      <trkpt lat="43.16937" lon="6.61162">
        <ele>99.259</ele>
        <time>2010-05-01T07:43:16Z</time>
      </trkpt>
      <trkpt lat="43.16936" lon="6.6117">
        <ele>99.84</ele>
        <time>2010-05-01T07:43:29Z</time>
      </trkpt>
      <trkpt lat="43.1693" lon="6.61187">
        <ele>100.155</ele>
        <time>2010-05-01T07:44:03Z</time>
      </trkpt>
      <trkpt lat="43.16926" lon="6.61195">
        <ele>99.919</ele>
        <time>2010-05-01T07:44:09Z</time>
      </trkpt>
      <trkpt lat="43.16913" lon="6.61228">
        <ele>98.699</ele>
        <time>2010-05-01T07:44:35Z</time>
      </trkpt>
      <trkpt lat="43.1691" lon="6.61245">
        <ele>97.496</ele>
        <time>2010-05-01T07:44:48Z</time>
      </trkpt>
      <trkpt lat="43.16908" lon="6.61265">
        <ele>93.807</ele>
        <time>2010-05-01T07:45:01Z</time>
      </trkpt>
      <trkpt lat="43.16905" lon="6.61268">
        <ele>93.262</ele>
        <time>2010-05-01T07:45:31Z</time>
      </trkpt>
      <trkpt lat="43.16903" lon="6.61276">
        <ele>92.048</ele>
        <time>2010-05-01T07:46:06Z</time>
      </trkpt>
      <trkpt lat="43.16897" lon="6.61292">
        <ele>90.668</ele>
        <time>2010-05-01T07:46:38Z</time>
      </trkpt>
      <trkpt lat="43.16895" lon="6.61295">
        <ele>90.469</ele>
        <time>2010-05-01T07:46:47Z</time>
      </trkpt>
      <trkpt lat="43.16894" lon="6.6133">
        <ele>91.23</ele>
        <time>2010-05-01T07:47:04Z</time>
      </trkpt>
      <trkpt lat="43.16899" lon="6.61338">
        <ele>91.932</ele>
        <time>2010-05-01T07:47:12Z</time>
      </trkpt>
      <trkpt lat="43.16902" lon="6.61343">
        <ele>92.401</ele>
        <time>2010-05-01T07:47:18Z</time>
      </trkpt>
      <trkpt lat="43.16921" lon="6.61355">
        <ele>94.13</ele>
        <time>2010-05-01T07:47:39Z</time>
      </trkpt>
      <trkpt lat="43.16925" lon="6.61358">
        <ele>94.876</ele>
        <time>2010-05-01T07:47:44Z</time>
      </trkpt>
      <trkpt lat="43.16939" lon="6.61378">
        <ele>96.135</ele>
        <time>2010-05-01T07:48:05Z</time>
      </trkpt>
      <trkpt lat="43.16955" lon="6.614">
        <ele>97.474</ele>
        <time>2010-05-01T07:48:29Z</time>
      </trkpt>
      <trkpt lat="43.16963" lon="6.61421">
        <ele>106.821</ele>
        <time>2010-05-01T07:48:48Z</time>
      </trkpt>
      <trkpt lat="43.16966" lon="6.61435">
        <ele>107.835</ele>
        <time>2010-05-01T07:48:57Z</time>
      </trkpt>
      <trkpt lat="43.16968" lon="6.61448">
        <ele>109.989</ele>
        <time>2010-05-01T07:49:23Z</time>
      </trkpt>
      <trkpt lat="43.16973" lon="6.61465">
        <ele>113.757</ele>
        <time>2010-05-01T07:49:40Z</time>
      </trkpt>
      <trkpt lat="43.16971" lon="6.61472">
        <ele>115.275</ele>
        <time>2010-05-01T07:49:49Z</time>
      </trkpt>
      <trkpt lat="43.16971" lon="6.6148">
        <ele>115.484</ele>
        <time>2010-05-01T07:49:54Z</time>
      </trkpt>
      <trkpt lat="43.16972" lon="6.61504">
        <ele>116.471</ele>
        <time>2010-05-01T07:50:13Z</time>
      </trkpt>
      <trkpt lat="43.16969" lon="6.61519">
        <ele>118.059</ele>
        <time>2010-05-01T07:50:33Z</time>
      </trkpt>
      <trkpt lat="43.16965" lon="6.61534">
        <ele>120.821</ele>
        <time>2010-05-01T07:50:47Z</time>
      </trkpt>
      <trkpt lat="43.16963" lon="6.61559">
        <ele>127.201</ele>
        <time>2010-05-01T07:51:07Z</time>
      </trkpt>
      <trkpt lat="43.16962" lon="6.61561">
        <ele>128.342</ele>
        <time>2010-05-01T07:51:10Z</time>
      </trkpt>
      <trkpt lat="43.16961" lon="6.61576">
        <ele>131.469</ele>
        <time>2010-05-01T07:51:22Z</time>
      </trkpt>
      <trkpt lat="43.16954" lon="6.61611">
        <ele>136.699</ele>
        <time>2010-05-01T07:51:51Z</time>
      </trkpt>
      <trkpt lat="43.16945" lon="6.61616">
        <ele>137.417</ele>
        <time>2010-05-01T07:52:00Z</time>
      </trkpt>
      <trkpt lat="43.16929" lon="6.61621">
        <ele>140.13</ele>
        <time>2010-05-01T07:52:15Z</time>
      </trkpt>
      <trkpt lat="43.16925" lon="6.61625">
        <ele>138.078</ele>
        <time>2010-05-01T07:52:31Z</time>
      </trkpt>
      <trkpt lat="43.16921" lon="6.61631">
        <ele>136.269</ele>
        <time>2010-05-01T07:52:37Z</time>
      </trkpt>
      <trkpt lat="43.16918" lon="6.61631">
        <ele>132.23</ele>
        <time>2010-05-01T07:53:00Z</time>
      </trkpt>
      <trkpt lat="43.16937" lon="6.61675">
        <ele>131.537</ele>
        <time>2010-05-01T07:53:30Z</time>
      </trkpt>
      <trkpt lat="43.16941" lon="6.61685">
        <ele>131.536</ele>
        <time>2010-05-01T07:53:37Z</time>
      </trkpt>
      <trkpt lat="43.16943" lon="6.61689">
        <ele>131.782</ele>
        <time>2010-05-01T07:53:40Z</time>
      </trkpt>
      <trkpt lat="43.16944" lon="6.61693">
        <ele>130.833</ele>
        <time>2010-05-01T07:53:51Z</time>
      </trkpt>
      <trkpt lat="43.16945" lon="6.61698">
        <ele>130.806</ele>
        <time>2010-05-01T07:53:54Z</time>
      </trkpt>
      <trkpt lat="43.16929" lon="6.61726">
        <ele>128.549</ele>
        <time>2010-05-01T07:54:17Z</time>
      </trkpt>
      <trkpt lat="43.16912" lon="6.61741">
        <ele>125.712</ele>
        <time>2010-05-01T07:54:35Z</time>
      </trkpt>
      <trkpt lat="43.16898" lon="6.61748">
        <ele>126.016</ele>
        <time>2010-05-01T07:54:50Z</time>
      </trkpt>
      <trkpt lat="43.16871" lon="6.61758">
        <ele>124.813</ele>
        <time>2010-05-01T07:55:16Z</time>
      </trkpt>
      <trkpt lat="43.16862" lon="6.61764">
        <ele>123.651</ele>
        <time>2010-05-01T07:55:27Z</time>
      </trkpt>
      <trkpt lat="43.16859" lon="6.61769">
        <ele>122.873</ele>
        <time>2010-05-01T07:55:32Z</time>
      </trkpt>
      <trkpt lat="43.16852" lon="6.61777">
        <ele>122.042</ele>
        <time>2010-05-01T07:55:41Z</time>
      </trkpt>
      <trkpt lat="43.16835" lon="6.61786">
        <ele>121.456</ele>
        <time>2010-05-01T07:56:02Z</time>
      </trkpt>
      <trkpt lat="43.16828" lon="6.61787">
        <ele>120.801</ele>
        <time>2010-05-01T07:56:10Z</time>
      </trkpt>
      <trkpt lat="43.16807" lon="6.61794">
        <ele>120.795</ele>
        <time>2010-05-01T07:56:32Z</time>
      </trkpt>
      <trkpt lat="43.16797" lon="6.61805">
        <ele>122.789</ele>
        <time>2010-05-01T07:56:42Z</time>
      </trkpt>
      <trkpt lat="43.16784" lon="6.61811">
        <ele>121.56</ele>
        <time>2010-05-01T07:56:54Z</time>
      </trkpt>
      <trkpt lat="43.16779" lon="6.61811">
        <ele>120.986</ele>
        <time>2010-05-01T07:56:58Z</time>
      </trkpt>
      <trkpt lat="43.16762" lon="6.61808">
        <ele>119.612</ele>
        <time>2010-05-01T07:57:16Z</time>
      </trkpt>
      <trkpt lat="43.16739" lon="6.61814">
        <ele>117.535</ele>
        <time>2010-05-01T07:57:36Z</time>
      </trkpt>
      <trkpt lat="43.16719" lon="6.61829">
        <ele>118.303</ele>
        <time>2010-05-01T07:58:01Z</time>
      </trkpt>
      <trkpt lat="43.16701" lon="6.61836">
        <ele>112.647</ele>
        <time>2010-05-01T07:58:23Z</time>
      </trkpt>
      <trkpt lat="43.16698" lon="6.61837">
        <ele>112.38</ele>
        <time>2010-05-01T07:58:25Z</time>
      </trkpt>
      <trkpt lat="43.16692" lon="6.61838">
        <ele>110.045</ele>
        <time>2010-05-01T07:58:31Z</time>
      </trkpt>
      <trkpt lat="43.16688" lon="6.61837">
        <ele>107.512</ele>
        <time>2010-05-01T07:58:36Z</time>
      </trkpt>
      <trkpt lat="43.16675" lon="6.61825">
        <ele>99.115</ele>
        <time>2010-05-01T07:58:53Z</time>
      </trkpt>
      <trkpt lat="43.16664" lon="6.61819">
        <ele>94.318</ele>
        <time>2010-05-01T07:59:07Z</time>
      </trkpt>
      <trkpt lat="43.16642" lon="6.61828">
        <ele>92.733</ele>
        <time>2010-05-01T07:59:29Z</time>
      </trkpt>
      <trkpt lat="43.16617" lon="6.61826">
        <ele>92.037</ele>
        <time>2010-05-01T07:59:53Z</time>
      </trkpt>
      <trkpt lat="43.16592" lon="6.61841">
        <ele>90.582</ele>
        <time>2010-05-01T08:00:22Z</time>
      </trkpt>
      <trkpt lat="43.16565" lon="6.6184">
        <ele>85.414</ele>
        <time>2010-05-01T08:00:53Z</time>
      </trkpt>
      <trkpt lat="43.16562" lon="6.61831">
        <ele>84.202</ele>
        <time>2010-05-01T08:01:01Z</time>
      </trkpt>
      <trkpt lat="43.16544" lon="6.61819">
        <ele>83.277</ele>
        <time>2010-05-01T08:01:17Z</time>
      </trkpt>
      <trkpt lat="43.16542" lon="6.61817">
        <ele>82.737</ele>
        <time>2010-05-01T08:01:20Z</time>
      </trkpt>
      <trkpt lat="43.16534" lon="6.61814">
        <ele>80.797</ele>
        <time>2010-05-01T08:01:27Z</time>
      </trkpt>
      <trkpt lat="43.16522" lon="6.61809">
        <ele>76.674</ele>
        <time>2010-05-01T08:01:40Z</time>
      </trkpt>
      <trkpt lat="43.1652" lon="6.61809">
        <ele>76.326</ele>
        <time>2010-05-01T08:01:42Z</time>
      </trkpt>
      <trkpt lat="43.16512" lon="6.61804">
        <ele>74.167</ele>
        <time>2010-05-01T08:02:04Z</time>
      </trkpt>
      <trkpt lat="43.1651" lon="6.61806">
        <ele>74.209</ele>
        <time>2010-05-01T08:02:06Z</time>
      </trkpt>
      <trkpt lat="43.16507" lon="6.61808">
        <ele>74.472</ele>
        <time>2010-05-01T08:02:08Z</time>
      </trkpt>
      <trkpt lat="43.16503" lon="6.61809">
        <ele>74.403</ele>
        <time>2010-05-01T08:02:12Z</time>
      </trkpt>
      <trkpt lat="43.16498" lon="6.6181">
        <ele>75.389</ele>
        <time>2010-05-01T08:02:20Z</time>
      </trkpt>
      <trkpt lat="43.16482" lon="6.6182">
        <ele>74.924</ele>
        <time>2010-05-01T08:02:38Z</time>
      </trkpt>
      <trkpt lat="43.16458" lon="6.61821">
        <ele>71.847</ele>
        <time>2010-05-01T08:02:56Z</time>
      </trkpt>
      <trkpt lat="43.16453" lon="6.61824">
        <ele>70.946</ele>
        <time>2010-05-01T08:03:00Z</time>
      </trkpt>
      <trkpt lat="43.16442" lon="6.61824">
        <ele>68.953</ele>
        <time>2010-05-01T08:03:10Z</time>
      </trkpt>
      <trkpt lat="43.16429" lon="6.61835">
        <ele>67.959</ele>
        <time>2010-05-01T08:03:21Z</time>
      </trkpt>
      <trkpt lat="43.16422" lon="6.61837">
        <ele>66.363</ele>
        <time>2010-05-01T08:03:30Z</time>
      </trkpt>
      <trkpt lat="43.16419" lon="6.61839">
        <ele>67.407</ele>
        <time>2010-05-01T08:03:32Z</time>
      </trkpt>
      <trkpt lat="43.16418" lon="6.61847">
        <ele>69.073</ele>
        <time>2010-05-01T08:03:37Z</time>
      </trkpt>
      <trkpt lat="43.16415" lon="6.61849">
        <ele>68.745</ele>
        <time>2010-05-01T08:03:40Z</time>
      </trkpt>
      <trkpt lat="43.1641" lon="6.61849">
        <ele>69.213</ele>
        <time>2010-05-01T08:03:44Z</time>
      </trkpt>
      <trkpt lat="43.16394" lon="6.61853">
        <ele>68.79</ele>
        <time>2010-05-01T08:04:01Z</time>
      </trkpt>
      <trkpt lat="43.16373" lon="6.61867">
        <ele>67.751</ele>
        <time>2010-05-01T08:04:24Z</time>
      </trkpt>
      <trkpt lat="43.16365" lon="6.61874">
        <ele>68.485</ele>
        <time>2010-05-01T08:04:32Z</time>
      </trkpt>
      <trkpt lat="43.16363" lon="6.61875">
        <ele>68.447</ele>
        <time>2010-05-01T08:04:34Z</time>
      </trkpt>
      <trkpt lat="43.16351" lon="6.61876">
        <ele>70.084</ele>
        <time>2010-05-01T08:04:49Z</time>
      </trkpt>
      <trkpt lat="43.16349" lon="6.61879">
        <ele>70.154</ele>
        <time>2010-05-01T08:04:51Z</time>
      </trkpt>
      <trkpt lat="43.16343" lon="6.61884">
        <ele>70.71</ele>
        <time>2010-05-01T08:04:56Z</time>
      </trkpt>
      <trkpt lat="43.1634" lon="6.61887">
        <ele>71.138</ele>
        <time>2010-05-01T08:04:59Z</time>
      </trkpt>
      <trkpt lat="43.16333" lon="6.61894">
        <ele>71.595</ele>
        <time>2010-05-01T08:05:06Z</time>
      </trkpt>
      <trkpt lat="43.16319" lon="6.61904">
        <ele>72.039</ele>
        <time>2010-05-01T08:05:20Z</time>
      </trkpt>
      <trkpt lat="43.16297" lon="6.61899">
        <ele>69.664</ele>
        <time>2010-05-01T08:05:38Z</time>
      </trkpt>
      <trkpt lat="43.16279" lon="6.61894">
        <ele>69.694</ele>
        <time>2010-05-01T08:05:56Z</time>
      </trkpt>
      <trkpt lat="43.16268" lon="6.61916">
        <ele>65.947</ele>
        <time>2010-05-01T08:06:17Z</time>
      </trkpt>
      <trkpt lat="43.16265" lon="6.61916">
        <ele>65.442</ele>
        <time>2010-05-01T08:06:24Z</time>
      </trkpt>
      <trkpt lat="43.16249" lon="6.61929">
        <ele>62.923</ele>
        <time>2010-05-01T08:06:40Z</time>
      </trkpt>
      <trkpt lat="43.16243" lon="6.61933">
        <ele>62.152</ele>
        <time>2010-05-01T08:06:47Z</time>
      </trkpt>
      <trkpt lat="43.16239" lon="6.61938">
        <ele>62.274</ele>
        <time>2010-05-01T08:06:52Z</time>
      </trkpt>
      <trkpt lat="43.16229" lon="6.61946">
        <ele>61.046</ele>
        <time>2010-05-01T08:07:11Z</time>
      </trkpt>
      <trkpt lat="43.16217" lon="6.61947">
        <ele>61.374</ele>
        <time>2010-05-01T08:07:22Z</time>
      </trkpt>
      <trkpt lat="43.16206" lon="6.61947">
        <ele>64.657</ele>
        <time>2010-05-01T08:07:44Z</time>
      </trkpt>
      <trkpt lat="43.16181" lon="6.6195">
        <ele>68.11</ele>
        <time>2010-05-01T08:08:08Z</time>
      </trkpt>
      <trkpt lat="43.16151" lon="6.61939">
        <ele>73.066</ele>
        <time>2010-05-01T08:08:37Z</time>
      </trkpt>
      <trkpt lat="43.16131" lon="6.6195">
        <ele>73.926</ele>
        <time>2010-05-01T08:08:56Z</time>
      </trkpt>
      <trkpt lat="43.16129" lon="6.61952">
        <ele>74.326</ele>
        <time>2010-05-01T08:08:59Z</time>
      </trkpt>
      <trkpt lat="43.16121" lon="6.61986">
        <ele>73.719</ele>
        <time>2010-05-01T08:09:26Z</time>
      </trkpt>
      <trkpt lat="43.16104" lon="6.61983">
        <ele>73.576</ele>
        <time>2010-05-01T08:09:40Z</time>
      </trkpt>
      <trkpt lat="43.16075" lon="6.6198">
        <ele>73.482</ele>
        <time>2010-05-01T08:10:05Z</time>
      </trkpt>
      <trkpt lat="43.16059" lon="6.61977">
        <ele>71.115</ele>
        <time>2010-05-01T08:10:29Z</time>
      </trkpt>
      <trkpt lat="43.16057" lon="6.61975">
        <ele>71.353</ele>
        <time>2010-05-01T08:10:41Z</time>
      </trkpt>
      <trkpt lat="43.16057" lon="6.61971">
        <ele>71.158</ele>
        <time>2010-05-01T08:10:43Z</time>
      </trkpt>
      <trkpt lat="43.16055" lon="6.61957">
        <ele>69.64</ele>
        <time>2010-05-01T08:10:53Z</time>
      </trkpt>
      <trkpt lat="43.1606" lon="6.61964">
        <ele>69.646</ele>
        <time>2010-05-01T08:11:13Z</time>
      </trkpt>
      <trkpt lat="43.16057" lon="6.61969">
        <ele>69.452</ele>
        <time>2010-05-01T08:11:22Z</time>
      </trkpt>
      <trkpt lat="43.16041" lon="6.61981">
        <ele>67.907</ele>
        <time>2010-05-01T08:11:46Z</time>
      </trkpt>
      <trkpt lat="43.16023" lon="6.61996">
        <ele>67.428</ele>
        <time>2010-05-01T08:12:08Z</time>
      </trkpt>
      <trkpt lat="43.16013" lon="6.61988">
        <ele>65.201</ele>
        <time>2010-05-01T08:12:31Z</time>
      </trkpt>
      <trkpt lat="43.16013" lon="6.61987">
        <ele>65.553</ele>
        <time>2010-05-01T08:12:48Z</time>
      </trkpt>
      <trkpt lat="43.16004" lon="6.61996">
        <ele>64.199</ele>
        <time>2010-05-01T08:13:14Z</time>
      </trkpt>
      <trkpt lat="43.16" lon="6.62002">
        <ele>63.597</ele>
        <time>2010-05-01T08:13:38Z</time>
      </trkpt>
      <trkpt lat="43.16" lon="6.62007">
        <ele>62.582</ele>
        <time>2010-05-01T08:13:52Z</time>
      </trkpt>
      <trkpt lat="43.16011" lon="6.62012">
        <ele>59.325</ele>
        <time>2010-05-01T08:14:13Z</time>
      </trkpt>
      <trkpt lat="43.16016" lon="6.62023">
        <ele>57.746</ele>
        <time>2010-05-01T08:14:23Z</time>
      </trkpt>
      <trkpt lat="43.16026" lon="6.62028">
        <ele>58.192</ele>
        <time>2010-05-01T08:14:43Z</time>
      </trkpt>
      <trkpt lat="43.16027" lon="6.62029">
        <ele>57.432</ele>
        <time>2010-05-01T08:14:45Z</time>
      </trkpt>
      <trkpt lat="43.16036" lon="6.62041">
        <ele>53.419</ele>
        <time>2010-05-01T08:15:03Z</time>
      </trkpt>
      <trkpt lat="43.16039" lon="6.62052">
        <ele>49.257</ele>
        <time>2010-05-01T08:15:27Z</time>
      </trkpt>
      <trkpt lat="43.16044" lon="6.6206">
        <ele>45.761</ele>
        <time>2010-05-01T08:15:40Z</time>
      </trkpt>
      <trkpt lat="43.16046" lon="6.62064">
        <ele>45.53</ele>
        <time>2010-05-01T08:15:43Z</time>
      </trkpt>
      <trkpt lat="43.16058" lon="6.62087">
        <ele>42.823</ele>
        <time>2010-05-01T08:16:07Z</time>
      </trkpt>
      <trkpt lat="43.16061" lon="6.62091">
        <ele>40.849</ele>
        <time>2010-05-01T08:16:12Z</time>
      </trkpt>
      <trkpt lat="43.16066" lon="6.62107">
        <ele>35.338</ele>
        <time>2010-05-01T08:16:34Z</time>
      </trkpt>
      <trkpt lat="43.16065" lon="6.62109">
        <ele>34.466</ele>
        <time>2010-05-01T08:16:37Z</time>
      </trkpt>
      <trkpt lat="43.16069" lon="6.62115">
        <ele>33.538</ele>
        <time>2010-05-01T08:16:45Z</time>
      </trkpt>
      <trkpt lat="43.16072" lon="6.62129">
        <ele>28.854</ele>
        <time>2010-05-01T08:17:04Z</time>
      </trkpt>
      <trkpt lat="43.16071" lon="6.6214">
        <ele>24.13</ele>
        <time>2010-05-01T08:17:21Z</time>
      </trkpt>
      <trkpt lat="43.16071" lon="6.62152">
        <ele>22.443</ele>
        <time>2010-05-01T08:17:33Z</time>
      </trkpt>
      <trkpt lat="43.16078" lon="6.62167">
        <ele>22.775</ele>
        <time>2010-05-01T08:17:57Z</time>
      </trkpt>
      <trkpt lat="43.16088" lon="6.62182">
        <ele>21.592</ele>
        <time>2010-05-01T08:18:29Z</time>
      </trkpt>
      <trkpt lat="43.16101" lon="6.62196">
        <ele>22.217</ele>
        <time>2010-05-01T08:18:49Z</time>
      </trkpt>
      <trkpt lat="43.16116" lon="6.62206">
        <ele>18.15</ele>
        <time>2010-05-01T08:19:12Z</time>
      </trkpt>
      <trkpt lat="43.16134" lon="6.62209">
        <ele>18.795</ele>
        <time>2010-05-01T08:19:31Z</time>
      </trkpt>
      <trkpt lat="43.16141" lon="6.62209">
        <ele>18.353</ele>
        <time>2010-05-01T08:19:53Z</time>
      </trkpt>
      <trkpt lat="43.16145" lon="6.62204">
        <ele>18.786</ele>
        <time>2010-05-01T08:19:59Z</time>
      </trkpt>
      <trkpt lat="43.16152" lon="6.62195">
        <ele>17.557</ele>
        <time>2010-05-01T08:20:12Z</time>
      </trkpt>
      <trkpt lat="43.16159" lon="6.62195">
        <ele>17.068</ele>
        <time>2010-05-01T08:20:17Z</time>
      </trkpt>
      <trkpt lat="43.16163" lon="6.62194">
        <ele>17.093</ele>
        <time>2010-05-01T08:20:20Z</time>
      </trkpt>
      <trkpt lat="43.16171" lon="6.62199">
        <ele>15.102</ele>
        <time>2010-05-01T08:20:29Z</time>
      </trkpt>
      <trkpt lat="43.16176" lon="6.62193">
        <ele>13.719</ele>
        <time>2010-05-01T08:20:40Z</time>
      </trkpt>
      <trkpt lat="43.1618" lon="6.62185">
        <ele>12.688</ele>
        <time>2010-05-01T08:20:46Z</time>
      </trkpt>
      <trkpt lat="43.16191" lon="6.62173">
        <ele>11.809</ele>
        <time>2010-05-01T08:20:59Z</time>
      </trkpt>
      <trkpt lat="43.16196" lon="6.62167">
        <ele>10.989</ele>
        <time>2010-05-01T08:21:08Z</time>
      </trkpt>
      <trkpt lat="43.16201" lon="6.62159">
        <ele>9.415</ele>
        <time>2010-05-01T08:21:32Z</time>
      </trkpt>
      <trkpt lat="43.16204" lon="6.6216">
        <ele>9.992</ele>
        <time>2010-05-01T08:22:00Z</time>
      </trkpt>
      <trkpt lat="43.16226" lon="6.62155">
        <ele>7.716</ele>
        <time>2010-05-01T08:22:25Z</time>
      </trkpt>
      <trkpt lat="43.1623" lon="6.62139">
        <ele>8.806</ele>
        <time>2010-05-01T08:22:41Z</time>
      </trkpt>
      <trkpt lat="43.16237" lon="6.62134">
        <ele>8.639</ele>
        <time>2010-05-01T08:22:48Z</time>
      </trkpt>
      <trkpt lat="43.16245" lon="6.62129">
        <ele>7.079</ele>
        <time>2010-05-01T08:23:00Z</time>
      </trkpt>
      <trkpt lat="43.16258" lon="6.62129">
        <ele>5.486</ele>
        <time>2010-05-01T08:23:16Z</time>
      </trkpt>
      <trkpt lat="43.16273" lon="6.62125">
        <ele>3.774</ele>
        <time>2010-05-01T08:23:34Z</time>
      </trkpt>
      <trkpt lat="43.16295" lon="6.62127">
        <ele>0.858</ele>
        <time>2010-05-01T08:23:53Z</time>
      </trkpt>
      <trkpt lat="43.16302" lon="6.6213">
        <ele>0.096</ele>
        <time>2010-05-01T08:24:06Z</time>
      </trkpt>
      <trkpt lat="43.16319" lon="6.62135">
        <ele>-1.117</ele>
        <time>2010-05-01T08:24:24Z</time>
      </trkpt>
      <trkpt lat="43.16332" lon="6.62145">
        <ele>-1.78</ele>
        <time>2010-05-01T08:24:45Z</time>
      </trkpt>
      <trkpt lat="43.16336" lon="6.62146">
        <ele>-1.761</ele>
        <time>2010-05-01T08:24:49Z</time>
      </trkpt>
      <trkpt lat="43.16344" lon="6.62153">
        <ele>-1.45</ele>
        <time>2010-05-01T08:24:58Z</time>
      </trkpt>
      <trkpt lat="43.16351" lon="6.62147">
        <ele>-1.41</ele>
        <time>2010-05-01T08:25:08Z</time>
      </trkpt>
      <trkpt lat="43.16364" lon="6.62148">
        <ele>0.91</ele>
        <time>2010-05-01T08:25:22Z</time>
      </trkpt>
      <trkpt lat="43.16375" lon="6.62151">
        <ele>0.862</ele>
        <time>2010-05-01T08:25:32Z</time>
      </trkpt>
      <trkpt lat="43.16379" lon="6.62159">
        <ele>0.417</ele>
        <time>2010-05-01T08:25:40Z</time>
      </trkpt>
      <trkpt lat="43.16385" lon="6.62163">
        <ele>-1.037</ele>
        <time>2010-05-01T08:25:46Z</time>
      </trkpt>
      <trkpt lat="43.16388" lon="6.62172">
        <ele>-1.329</ele>
        <time>2010-05-01T08:25:56Z</time>
      </trkpt>
      <trkpt lat="43.16399" lon="6.62182">
        <ele>-2.259</ele>
        <time>2010-05-01T08:26:13Z</time>
      </trkpt>
      <trkpt lat="43.16401" lon="6.62181">
        <ele>-2.299</ele>
        <time>2010-05-01T08:26:15Z</time>
      </trkpt>
      <trkpt lat="43.16405" lon="6.62181">
        <ele>-3.275</ele>
        <time>2010-05-01T08:26:20Z</time>
      </trkpt>
      <trkpt lat="43.16421" lon="6.62185">
        <ele>-0.62</ele>
        <time>2010-05-01T08:26:44Z</time>
      </trkpt>
      <trkpt lat="43.1643" lon="6.62184">
        <ele>0.205</ele>
        <time>2010-05-01T08:26:59Z</time>
      </trkpt>
      <trkpt lat="43.16434" lon="6.62189">
        <ele>0.329</ele>
        <time>2010-05-01T08:27:06Z</time>
      </trkpt>
      <trkpt lat="43.16455" lon="6.62195">
        <ele>-1.38</ele>
        <time>2010-05-01T08:27:29Z</time>
      </trkpt>
      <trkpt lat="43.16462" lon="6.62206">
        <ele>-0.652</ele>
        <time>2010-05-01T08:27:39Z</time>
      </trkpt>
      <trkpt lat="43.16473" lon="6.62215">
        <ele>0.531</ele>
        <time>2010-05-01T08:27:52Z</time>
      </trkpt>
      <trkpt lat="43.16484" lon="6.62225">
        <ele>1.603</ele>
        <time>2010-05-01T08:28:05Z</time>
      </trkpt>
      <trkpt lat="43.16488" lon="6.62234">
        <ele>2.315</ele>
        <time>2010-05-01T08:28:15Z</time>
      </trkpt>
      <trkpt lat="43.16492" lon="6.62237">
        <ele>2.96</ele>
        <time>2010-05-01T08:28:20Z</time>
      </trkpt>
      <trkpt lat="43.16498" lon="6.62239">
        <ele>3.665</ele>
        <time>2010-05-01T08:28:27Z</time>
      </trkpt>
      <trkpt lat="43.16504" lon="6.62245">
        <ele>3.543</ele>
        <time>2010-05-01T08:28:34Z</time>
      </trkpt>
      <trkpt lat="43.16509" lon="6.62254">
        <ele>3.376</ele>
        <time>2010-05-01T08:28:43Z</time>
      </trkpt>
      <trkpt lat="43.16519" lon="6.62271">
        <ele>1.88</ele>
        <time>2010-05-01T08:29:02Z</time>
      </trkpt>
      <trkpt lat="43.16531" lon="6.62278">
        <ele>2.068</ele>
        <time>2010-05-01T08:29:18Z</time>
      </trkpt>
      <trkpt lat="43.16546" lon="6.62292">
        <ele>-0.528</ele>
        <time>2010-05-01T08:29:40Z</time>
      </trkpt>
      <trkpt lat="43.16561" lon="6.62309">
        <ele>-0.17</ele>
        <time>2010-05-01T08:30:02Z</time>
      </trkpt>
      <trkpt lat="43.16562" lon="6.62318">
        <ele>0.606</ele>
        <time>2010-05-01T08:30:08Z</time>
      </trkpt>
      <trkpt lat="43.16563" lon="6.62321">
        <ele>0.736</ele>
        <time>2010-05-01T08:30:10Z</time>
      </trkpt>
      <trkpt lat="43.16565" lon="6.62325">
        <ele>0.116</ele>
        <time>2010-05-01T08:30:13Z</time>
      </trkpt>
      <trkpt lat="43.16575" lon="6.62342">
        <ele>-1.238</ele>
        <time>2010-05-01T08:30:30Z</time>
      </trkpt>
      <trkpt lat="43.16597" lon="6.62364">
        <ele>-1.941</ele>
        <time>2010-05-01T08:30:58Z</time>
      </trkpt>
      <trkpt lat="43.16604" lon="6.62378">
        <ele>-2.614</ele>
        <time>2010-05-01T08:31:13Z</time>
      </trkpt>
      <trkpt lat="43.16603" lon="6.62385">
        <ele>-2.606</ele>
        <time>2010-05-01T08:31:18Z</time>
      </trkpt>
      <trkpt lat="43.16602" lon="6.62398">
        <ele>-0.458</ele>
        <time>2010-05-01T08:31:36Z</time>
      </trkpt>
      <trkpt lat="43.16605" lon="6.6241">
        <ele>-0.949</ele>
        <time>2010-05-01T08:31:57Z</time>
      </trkpt>
      <trkpt lat="43.16611" lon="6.6242">
        <ele>-0.985</ele>
        <time>2010-05-01T08:32:18Z</time>
      </trkpt>
      <trkpt lat="43.16616" lon="6.6244">
        <ele>-1.733</ele>
        <time>2010-05-01T08:32:42Z</time>
      </trkpt>
      <trkpt lat="43.16628" lon="6.62452">
        <ele>-1.364</ele>
        <time>2010-05-01T08:33:06Z</time>
      </trkpt>
      <trkpt lat="43.16635" lon="6.62464">
        <ele>3.669</ele>
        <time>2010-05-01T08:33:29Z</time>
      </trkpt>
      <trkpt lat="43.16635" lon="6.62464">
        <ele>3.545</ele>
        <time>2010-05-01T08:33:34Z</time>
      </trkpt>
      <trkpt lat="43.16629" lon="6.62481">
        <ele>5.705</ele>
        <time>2010-05-01T08:33:48Z</time>
      </trkpt>
      <trkpt lat="43.16628" lon="6.62487">
        <ele>6.629</ele>
        <time>2010-05-01T08:33:52Z</time>
      </trkpt>
      <trkpt lat="43.1663" lon="6.62495">
        <ele>7.39</ele>
        <time>2010-05-01T08:33:57Z</time>
      </trkpt>
      <trkpt lat="43.16625" lon="6.62508">
        <ele>7.332</ele>
        <time>2010-05-01T08:34:07Z</time>
      </trkpt>
      <trkpt lat="43.1662" lon="6.62513">
        <ele>6.806</ele>
        <time>2010-05-01T08:34:12Z</time>
      </trkpt>
      <trkpt lat="43.16616" lon="6.62528">
        <ele>6.195</ele>
        <time>2010-05-01T08:34:29Z</time>
      </trkpt>
      <trkpt lat="43.16624" lon="6.62516">
        <ele>5.062</ele>
        <time>2010-05-01T08:34:40Z</time>
      </trkpt>
      <trkpt lat="43.16625" lon="6.62512">
        <ele>4.642</ele>
        <time>2010-05-01T08:34:43Z</time>
      </trkpt>
      <trkpt lat="43.1663" lon="6.62483">
        <ele>7.359</ele>
        <time>2010-05-01T08:35:05Z</time>
      </trkpt>
      <trkpt lat="43.16638" lon="6.62471">
        <ele>10.81</ele>
        <time>2010-05-01T08:35:25Z</time>
      </trkpt>
      <trkpt lat="43.16642" lon="6.62477">
        <ele>13.462</ele>
        <time>2010-05-01T08:35:35Z</time>
      </trkpt>
      <trkpt lat="43.16642" lon="6.62489">
        <ele>14.079</ele>
        <time>2010-05-01T08:35:52Z</time>
      </trkpt>
      <trkpt lat="43.16632" lon="6.62464">
        <ele>14.777</ele>
        <time>2010-05-01T08:36:21Z</time>
      </trkpt>
      <trkpt lat="43.16633" lon="6.62467">
        <ele>14.608</ele>
        <time>2010-05-01T08:36:28Z</time>
      </trkpt>
      <trkpt lat="43.16639" lon="6.62477">
        <ele>17.058</ele>
        <time>2010-05-01T08:36:38Z</time>
      </trkpt>
      <trkpt lat="43.1664" lon="6.62481">
        <ele>16.554</ele>
        <time>2010-05-01T08:36:41Z</time>
      </trkpt>
      <trkpt lat="43.16643" lon="6.62486">
        <ele>16.478</ele>
        <time>2010-05-01T08:36:45Z</time>
      </trkpt>
      <trkpt lat="43.16643" lon="6.62505">
        <ele>11.965</ele>
        <time>2010-05-01T08:36:58Z</time>
      </trkpt>
      <trkpt lat="43.16638" lon="6.62514">
        <ele>12.643</ele>
        <time>2010-05-01T08:37:24Z</time>
      </trkpt>
      <trkpt lat="43.16638" lon="6.62516">
        <ele>12.458</ele>
        <time>2010-05-01T08:37:25Z</time>
      </trkpt>
      <trkpt lat="43.16632" lon="6.6254">
        <ele>15.504</ele>
        <time>2010-05-01T08:37:48Z</time>
      </trkpt>
      <trkpt lat="43.16636" lon="6.6255">
        <ele>16.759</ele>
        <time>2010-05-01T08:37:57Z</time>
      </trkpt>
      <trkpt lat="43.16638" lon="6.6256">
        <ele>16.974</ele>
        <time>2010-05-01T08:38:08Z</time>
      </trkpt>
      <trkpt lat="43.16653" lon="6.62571">
        <ele>18.606</ele>
        <time>2010-05-01T08:38:31Z</time>
      </trkpt>
      <trkpt lat="43.16666" lon="6.62587">
        <ele>21.129</ele>
        <time>2010-05-01T08:38:51Z</time>
      </trkpt>
      <trkpt lat="43.16672" lon="6.62593">
        <ele>22.177</ele>
        <time>2010-05-01T08:38:59Z</time>
      </trkpt>
      <trkpt lat="43.16677" lon="6.62601">
        <ele>22.807</ele>
        <time>2010-05-01T08:39:10Z</time>
      </trkpt>
      <trkpt lat="43.16676" lon="6.62609">
        <ele>22.092</ele>
        <time>2010-05-01T08:39:16Z</time>
      </trkpt>
      <trkpt lat="43.16675" lon="6.62611">
        <ele>21.791</ele>
        <time>2010-05-01T08:39:18Z</time>
      </trkpt>
      <trkpt lat="43.16683" lon="6.6262">
        <ele>20.991</ele>
        <time>2010-05-01T08:39:32Z</time>
      </trkpt>
      <trkpt lat="43.16702" lon="6.62622">
        <ele>24.911</ele>
        <time>2010-05-01T08:39:58Z</time>
      </trkpt>
      <trkpt lat="43.16718" lon="6.62632">
        <ele>30.498</ele>
        <time>2010-05-01T08:40:21Z</time>
      </trkpt>
      <trkpt lat="43.16732" lon="6.62633">
        <ele>31.402</ele>
        <time>2010-05-01T08:40:39Z</time>
      </trkpt>
      <trkpt lat="43.16743" lon="6.6263">
        <ele>30.592</ele>
        <time>2010-05-01T08:41:00Z</time>
      </trkpt>
      <trkpt lat="43.16758" lon="6.62631">
        <ele>29.185</ele>
        <time>2010-05-01T08:41:19Z</time>
      </trkpt>
      <trkpt lat="43.16771" lon="6.6263">
        <ele>31.672</ele>
        <time>2010-05-01T08:41:40Z</time>
      </trkpt>
      <trkpt lat="43.16778" lon="6.62637">
        <ele>30.747</ele>
        <time>2010-05-01T08:41:51Z</time>
      </trkpt>
      <trkpt lat="43.16789" lon="6.62656">
        <ele>23.9</ele>
        <time>2010-05-01T08:42:18Z</time>
      </trkpt>
      <trkpt lat="43.16805" lon="6.62681">
        <ele>19.797</ele>
        <time>2010-05-01T08:42:45Z</time>
      </trkpt>
      <trkpt lat="43.16813" lon="6.62697">
        <ele>16.385</ele>
        <time>2010-05-01T08:43:15Z</time>
      </trkpt>
      <trkpt lat="43.16817" lon="6.62701">
        <ele>15.866</ele>
        <time>2010-05-01T08:43:20Z</time>
      </trkpt>
      <trkpt lat="43.16819" lon="6.62706">
        <ele>15.566</ele>
        <time>2010-05-01T08:43:23Z</time>
      </trkpt>
      <trkpt lat="43.16824" lon="6.62707">
        <ele>13.716</ele>
        <time>2010-05-01T08:43:46Z</time>
      </trkpt>
      <trkpt lat="43.16847" lon="6.62716">
        <ele>11.979</ele>
        <time>2010-05-01T08:44:10Z</time>
      </trkpt>
      <trkpt lat="43.16849" lon="6.62722">
        <ele>7.738</ele>
        <time>2010-05-01T08:44:46Z</time>
      </trkpt>
      <trkpt lat="43.16852" lon="6.62725">
        <ele>6.499</ele>
        <time>2010-05-01T08:45:01Z</time>
      </trkpt>
      <trkpt lat="43.16859" lon="6.62727">
        <ele>3.946</ele>
        <time>2010-05-01T08:45:10Z</time>
      </trkpt>
      <trkpt lat="43.16876" lon="6.6274">
        <ele>5.531</ele>
        <time>2010-05-01T08:45:37Z</time>
      </trkpt>
      <trkpt lat="43.16881" lon="6.62746">
        <ele>3.508</ele>
        <time>2010-05-01T08:45:44Z</time>
      </trkpt>
      <trkpt lat="43.16903" lon="6.62759">
        <ele>5.387</ele>
        <time>2010-05-01T08:46:13Z</time>
      </trkpt>
      <trkpt lat="43.16914" lon="6.62774">
        <ele>10.984</ele>
        <time>2010-05-01T08:46:38Z</time>
      </trkpt>
      <trkpt lat="43.16921" lon="6.62791">
        <ele>12.479</ele>
        <time>2010-05-01T08:46:55Z</time>
      </trkpt>
      <trkpt lat="43.16932" lon="6.62809">
        <ele>17.89</ele>
        <time>2010-05-01T08:47:21Z</time>
      </trkpt>
      <trkpt lat="43.16939" lon="6.62804">
        <ele>19.489</ele>
        <time>2010-05-01T08:47:43Z</time>
      </trkpt>
      <trkpt lat="43.16945" lon="6.62797">
        <ele>25.297</ele>
        <time>2010-05-01T08:48:08Z</time>
      </trkpt>
      <trkpt lat="43.1695" lon="6.62785">
        <ele>27.803</ele>
        <time>2010-05-01T08:48:33Z</time>
      </trkpt>
      <trkpt lat="43.16958" lon="6.62795">
        <ele>31.138</ele>
        <time>2010-05-01T08:49:00Z</time>
      </trkpt>
      <trkpt lat="43.16968" lon="6.62808">
        <ele>36.199</ele>
        <time>2010-05-01T08:49:25Z</time>
      </trkpt>
      <trkpt lat="43.16969" lon="6.62819">
        <ele>40.715</ele>
        <time>2010-05-01T08:49:44Z</time>
      </trkpt>
      <trkpt lat="43.16981" lon="6.62844">
        <ele>44.56</ele>
        <time>2010-05-01T08:50:13Z</time>
      </trkpt>
      <trkpt lat="43.16982" lon="6.62873">
        <ele>38.786</ele>
        <time>2010-05-01T08:50:38Z</time>
      </trkpt>
      <trkpt lat="43.16988" lon="6.6289">
        <ele>35.772</ele>
        <time>2010-05-01T08:51:02Z</time>
      </trkpt>
      <trkpt lat="43.16992" lon="6.62895">
        <ele>33.156</ele>
        <time>2010-05-01T08:51:13Z</time>
      </trkpt>
      <trkpt lat="43.16995" lon="6.62898">
        <ele>32.324</ele>
        <time>2010-05-01T08:51:17Z</time>
      </trkpt>
      <trkpt lat="43.17018" lon="6.62906">
        <ele>36.801</ele>
        <time>2010-05-01T08:51:40Z</time>
      </trkpt>
      <trkpt lat="43.17019" lon="6.62928">
        <ele>36.59</ele>
        <time>2010-05-01T08:52:00Z</time>
      </trkpt>
      <trkpt lat="43.17011" lon="6.62934">
        <ele>31.313</ele>
        <time>2010-05-01T08:52:19Z</time>
      </trkpt>
      <trkpt lat="43.17007" lon="6.62936">
        <ele>29.844</ele>
        <time>2010-05-01T08:52:57Z</time>
      </trkpt>
      <trkpt lat="43.17005" lon="6.62938">
        <ele>29.549</ele>
        <time>2010-05-01T08:55:21Z</time>
      </trkpt>
      <trkpt lat="43.17004" lon="6.62943">
        <ele>27.943</ele>
        <time>2010-05-01T08:56:12Z</time>
      </trkpt>
      <trkpt lat="43.16996" lon="6.62949">
        <ele>25.548</ele>
        <time>2010-05-01T08:56:38Z</time>
      </trkpt>
      <trkpt lat="43.16986" lon="6.62956">
        <ele>22.478</ele>
        <time>2010-05-01T08:57:02Z</time>
      </trkpt>
      <trkpt lat="43.16996" lon="6.62972">
        <ele>11.608</ele>
        <time>2010-05-01T08:57:25Z</time>
      </trkpt>
      <trkpt lat="43.17" lon="6.62979">
        <ele>10.667</ele>
        <time>2010-05-01T08:57:35Z</time>
      </trkpt>
      <trkpt lat="43.17016" lon="6.6298">
        <ele>7.916</ele>
        <time>2010-05-01T08:57:57Z</time>
      </trkpt>
      <trkpt lat="43.17021" lon="6.62977">
        <ele>5.842</ele>
        <time>2010-05-01T08:58:04Z</time>
      </trkpt>
      <trkpt lat="43.17038" lon="6.62981">
        <ele>3.622</ele>
        <time>2010-05-01T08:58:31Z</time>
      </trkpt>
      <trkpt lat="43.17043" lon="6.62979">
        <ele>2.216</ele>
        <time>2010-05-01T08:58:43Z</time>
      </trkpt>
      <trkpt lat="43.17062" lon="6.62993">
        <ele>5.924</ele>
        <time>2010-05-01T08:59:09Z</time>
      </trkpt>
      <trkpt lat="43.1707" lon="6.6301">
        <ele>7.943</ele>
        <time>2010-05-01T08:59:37Z</time>
      </trkpt>
      <trkpt lat="43.17074" lon="6.63018">
        <ele>7.309</ele>
        <time>2010-05-01T08:59:55Z</time>
      </trkpt>
      <trkpt lat="43.17088" lon="6.63031">
        <ele>5.966</ele>
        <time>2010-05-01T09:00:16Z</time>
      </trkpt>
      <trkpt lat="43.17104" lon="6.63034">
        <ele>6.028</ele>
        <time>2010-05-01T09:00:38Z</time>
      </trkpt>
      <trkpt lat="43.17115" lon="6.63056">
        <ele>5.664</ele>
        <time>2010-05-01T09:01:02Z</time>
      </trkpt>
      <trkpt lat="43.17123" lon="6.63069">
        <ele>7.439</ele>
        <time>2010-05-01T09:01:26Z</time>
      </trkpt>
      <trkpt lat="43.17127" lon="6.63084">
        <ele>11.218</ele>
        <time>2010-05-01T09:01:43Z</time>
      </trkpt>
      <trkpt lat="43.17128" lon="6.63096">
        <ele>10.583</ele>
        <time>2010-05-01T09:02:04Z</time>
      </trkpt>
      <trkpt lat="43.17128" lon="6.63111">
        <ele>8.899</ele>
        <time>2010-05-01T09:02:26Z</time>
      </trkpt>
      <trkpt lat="43.17125" lon="6.6312">
        <ele>7.895</ele>
        <time>2010-05-01T09:02:34Z</time>
      </trkpt>
      <trkpt lat="43.17125" lon="6.63136">
        <ele>8.811</ele>
        <time>2010-05-01T09:02:47Z</time>
      </trkpt>
      <trkpt lat="43.17123" lon="6.6314">
        <ele>9.223</ele>
        <time>2010-05-01T09:02:50Z</time>
      </trkpt>
      <trkpt lat="43.17123" lon="6.63144">
        <ele>9.162</ele>
        <time>2010-05-01T09:02:52Z</time>
      </trkpt>
      <trkpt lat="43.17116" lon="6.63159">
        <ele>10.29</ele>
        <time>2010-05-01T09:03:12Z</time>
      </trkpt>
      <trkpt lat="43.17104" lon="6.63176">
        <ele>7.715</ele>
        <time>2010-05-01T09:03:35Z</time>
      </trkpt>
      <trkpt lat="43.17105" lon="6.63181">
        <ele>5.235</ele>
        <time>2010-05-01T09:03:40Z</time>
      </trkpt>
      <trkpt lat="43.17113" lon="6.63195">
        <ele>4.355</ele>
        <time>2010-05-01T09:03:55Z</time>
      </trkpt>
      <trkpt lat="43.17122" lon="6.63205">
        <ele>2.447</ele>
        <time>2010-05-01T09:04:07Z</time>
      </trkpt>
      <trkpt lat="43.17134" lon="6.63202">
        <ele>4.995</ele>
        <time>2010-05-01T09:04:30Z</time>
      </trkpt>
      <trkpt lat="43.17153" lon="6.63199">
        <ele>5.91</ele>
        <time>2010-05-01T09:04:56Z</time>
      </trkpt>
      <trkpt lat="43.17155" lon="6.632">
        <ele>5.982</ele>
        <time>2010-05-01T09:04:58Z</time>
      </trkpt>
      <trkpt lat="43.17169" lon="6.63201">
        <ele>3.998</ele>
        <time>2010-05-01T09:05:13Z</time>
      </trkpt>
      <trkpt lat="43.17183" lon="6.6321">
        <ele>3.66</ele>
        <time>2010-05-01T09:05:36Z</time>
      </trkpt>
      <trkpt lat="43.1719" lon="6.63218">
        <ele>4.093</ele>
        <time>2010-05-01T09:05:50Z</time>
      </trkpt>
      <trkpt lat="43.172" lon="6.63224">
        <ele>1.569</ele>
        <time>2010-05-01T09:06:04Z</time>
      </trkpt>
      <trkpt lat="43.17207" lon="6.63231">
        <ele>-0.499</ele>
        <time>2010-05-01T09:06:14Z</time>
      </trkpt>
      <trkpt lat="43.17212" lon="6.63235">
        <ele>-3.058</ele>
        <time>2010-05-01T09:06:33Z</time>
      </trkpt>
      <trkpt lat="43.17211" lon="6.63235">
        <ele>-3.273</ele>
        <time>2010-05-01T09:07:29Z</time>
      </trkpt>
      <trkpt lat="43.17211" lon="6.63235">
        <ele>-3.238</ele>
        <time>2010-05-01T09:07:37Z</time>
      </trkpt>
      <trkpt lat="43.17217" lon="6.63248">
        <ele>-4.116</ele>
        <time>2010-05-01T09:08:06Z</time>
      </trkpt>
      <trkpt lat="43.17216" lon="6.63255">
        <ele>-4.954</ele>
        <time>2010-05-01T09:08:35Z</time>
      </trkpt>
      <trkpt lat="43.17216" lon="6.63255">
        <ele>-5.104</ele>
        <time>2010-05-01T09:08:36Z</time>
      </trkpt>
      <trkpt lat="43.17218" lon="6.63263">
        <ele>-5.199</ele>
        <time>2010-05-01T09:08:42Z</time>
      </trkpt>
      <trkpt lat="43.17218" lon="6.63268">
        <ele>-5.333</ele>
        <time>2010-05-01T09:08:46Z</time>
      </trkpt>
      <trkpt lat="43.17222" lon="6.63274">
        <ele>-4.955</ele>
        <time>2010-05-01T09:09:07Z</time>
      </trkpt>
      <trkpt lat="43.1723" lon="6.63293">
        <ele>-2.396</ele>
        <time>2010-05-01T09:09:39Z</time>
      </trkpt>
      <trkpt lat="43.17231" lon="6.63297">
        <ele>-2.878</ele>
        <time>2010-05-01T09:09:43Z</time>
      </trkpt>
      <trkpt lat="43.17238" lon="6.63313">
        <ele>-3.841</ele>
        <time>2010-05-01T09:09:59Z</time>
      </trkpt>
      <trkpt lat="43.17251" lon="6.63322">
        <ele>-3.391</ele>
        <time>2010-05-01T09:10:19Z</time>
      </trkpt>
      <trkpt lat="43.17247" lon="6.63334">
        <ele>-4.062</ele>
        <time>2010-05-01T09:10:27Z</time>
      </trkpt>
      <trkpt lat="43.17247" lon="6.63338">
        <ele>-4.421</ele>
        <time>2010-05-01T09:10:30Z</time>
      </trkpt>
      <trkpt lat="43.17254" lon="6.63365">
        <ele>-5.097</ele>
        <time>2010-05-01T09:10:53Z</time>
      </trkpt>
      <trkpt lat="43.17259" lon="6.63393">
        <ele>-2.992</ele>
        <time>2010-05-01T09:11:18Z</time>
      </trkpt>
      <trkpt lat="43.17267" lon="6.63421">
        <ele>-0.691</ele>
        <time>2010-05-01T09:11:41Z</time>
      </trkpt>
      <trkpt lat="43.17271" lon="6.63452">
        <ele>0.941</ele>
        <time>2010-05-01T09:12:09Z</time>
      </trkpt>
      <trkpt lat="43.17275" lon="6.63488">
        <ele>1.641</ele>
        <time>2010-05-01T09:12:38Z</time>
      </trkpt>
      <trkpt lat="43.17277" lon="6.6351">
        <ele>0.632</ele>
        <time>2010-05-01T09:13:06Z</time>
      </trkpt>
      <trkpt lat="43.17277" lon="6.63547">
        <ele>-1.188</ele>
        <time>2010-05-01T09:13:38Z</time>
      </trkpt>
      <trkpt lat="43.17282" lon="6.63574">
        <ele>-5.629</ele>
        <time>2010-05-01T09:14:05Z</time>
      </trkpt>
      <trkpt lat="43.17275" lon="6.63605">
        <ele>-3.2</ele>
        <time>2010-05-01T09:14:34Z</time>
      </trkpt>
      <trkpt lat="43.17275" lon="6.6364">
        <ele>-4.919</ele>
        <time>2010-05-01T09:15:05Z</time>
      </trkpt>
      <trkpt lat="43.17277" lon="6.63661">
        <ele>-2.305</ele>
        <time>2010-05-01T09:15:28Z</time>
      </trkpt>
      <trkpt lat="43.17273" lon="6.63696">
        <ele>-2.856</ele>
        <time>2010-05-01T09:15:57Z</time>
      </trkpt>
      <trkpt lat="43.17268" lon="6.63698">
        <ele>-2.98</ele>
        <time>2010-05-01T09:16:02Z</time>
      </trkpt>
      <trkpt lat="43.17263" lon="6.63712">
        <ele>-0.592</ele>
        <time>2010-05-01T09:16:23Z</time>
      </trkpt>
      <trkpt lat="43.1726" lon="6.63717">
        <ele>-0.364</ele>
        <time>2010-05-01T09:16:28Z</time>
      </trkpt>
      <trkpt lat="43.17254" lon="6.6373">
        <ele>0.419</ele>
        <time>2010-05-01T09:16:51Z</time>
      </trkpt>
      <trkpt lat="43.17252" lon="6.63734">
        <ele>2.321</ele>
        <time>2010-05-01T09:16:56Z</time>
      </trkpt>
      <trkpt lat="43.17248" lon="6.63742">
        <ele>4.582</ele>
        <time>2010-05-01T09:17:26Z</time>
      </trkpt>
      <trkpt lat="43.17246" lon="6.6376">
        <ele>10.337</ele>
        <time>2010-05-01T09:17:48Z</time>
      </trkpt>
      <trkpt lat="43.17248" lon="6.63764">
        <ele>10.025</ele>
        <time>2010-05-01T09:17:57Z</time>
      </trkpt>
      <trkpt lat="43.17248" lon="6.63767">
        <ele>8.491</ele>
        <time>2010-05-01T09:17:59Z</time>
      </trkpt>
      <trkpt lat="43.17244" lon="6.63787">
        <ele>8.148</ele>
        <time>2010-05-01T09:18:20Z</time>
      </trkpt>
      <trkpt lat="43.17247" lon="6.63796">
        <ele>6.391</ele>
        <time>2010-05-01T09:18:42Z</time>
      </trkpt>
      <trkpt lat="43.17251" lon="6.63797">
        <ele>6.291</ele>
        <time>2010-05-01T09:18:46Z</time>
      </trkpt>
      <trkpt lat="43.1725" lon="6.6381">
        <ele>4.59</ele>
        <time>2010-05-01T09:19:06Z</time>
      </trkpt>
      <trkpt lat="43.17256" lon="6.63825">
        <ele>2.726</ele>
        <time>2010-05-01T09:19:33Z</time>
      </trkpt>
      <trkpt lat="43.17256" lon="6.63832">
        <ele>4.59</ele>
        <time>2010-05-01T09:20:05Z</time>
      </trkpt>
      <trkpt lat="43.17261" lon="6.63844">
        <ele>3.622</ele>
        <time>2010-05-01T09:20:41Z</time>
      </trkpt>
      <trkpt lat="43.17267" lon="6.63862">
        <ele>1.965</ele>
        <time>2010-05-01T09:21:03Z</time>
      </trkpt>
      <trkpt lat="43.17276" lon="6.63887">
        <ele>0.701</ele>
        <time>2010-05-01T09:21:27Z</time>
      </trkpt>
      <trkpt lat="43.17274" lon="6.63893">
        <ele>-0.721</ele>
        <time>2010-05-01T09:21:34Z</time>
      </trkpt>
      <trkpt lat="43.17273" lon="6.639">
        <ele>-1.017</ele>
        <time>2010-05-01T09:21:39Z</time>
      </trkpt>
      <trkpt lat="43.17276" lon="6.63915">
        <ele>-0.352</ele>
        <time>2010-05-01T09:22:02Z</time>
      </trkpt>
      <trkpt lat="43.17278" lon="6.63916">
        <ele>-0.535</ele>
        <time>2010-05-01T09:22:09Z</time>
      </trkpt>
      <trkpt lat="43.17281" lon="6.63921">
        <ele>-0.704</ele>
        <time>2010-05-01T09:22:14Z</time>
      </trkpt>
      <trkpt lat="43.17283" lon="6.63931">
        <ele>-1.015</ele>
        <time>2010-05-01T09:22:48Z</time>
      </trkpt>
      <trkpt lat="43.17296" lon="6.63928">
        <ele>1.474</ele>
        <time>2010-05-01T09:23:04Z</time>
      </trkpt>
      <trkpt lat="43.17318" lon="6.63916">
        <ele>2.262</ele>
        <time>2010-05-01T09:23:28Z</time>
      </trkpt>
      <trkpt lat="43.17326" lon="6.6391">
        <ele>2.69</ele>
        <time>2010-05-01T09:23:40Z</time>
      </trkpt>
      <trkpt lat="43.17343" lon="6.63917">
        <ele>0.953</ele>
        <time>2010-05-01T09:23:55Z</time>
      </trkpt>
      <trkpt lat="43.17347" lon="6.6392">
        <ele>0.7</ele>
        <time>2010-05-01T09:24:00Z</time>
      </trkpt>
      <trkpt lat="43.17372" lon="6.63936">
        <ele>1.986</ele>
        <time>2010-05-01T09:24:25Z</time>
      </trkpt>
      <trkpt lat="43.17395" lon="6.63946">
        <ele>1.136</ele>
        <time>2010-05-01T09:24:49Z</time>
      </trkpt>
      <trkpt lat="43.17411" lon="6.63963">
        <ele>-0.191</ele>
        <time>2010-05-01T09:25:10Z</time>
      </trkpt>
      <trkpt lat="43.1742" lon="6.6397">
        <ele>-1.178</ele>
        <time>2010-05-01T09:25:21Z</time>
      </trkpt>
      <trkpt lat="43.17424" lon="6.63972">
        <ele>0.11</ele>
        <time>2010-05-01T09:25:28Z</time>
      </trkpt>
      <trkpt lat="43.17437" lon="6.63982">
        <ele>0.708</ele>
        <time>2010-05-01T09:25:44Z</time>
      </trkpt>
      <trkpt lat="43.17454" lon="6.63979">
        <ele>1.186</ele>
        <time>2010-05-01T09:26:01Z</time>
      </trkpt>
      <trkpt lat="43.17482" lon="6.63979">
        <ele>2.311</ele>
        <time>2010-05-01T09:26:30Z</time>
      </trkpt>
      <trkpt lat="43.17494" lon="6.63977">
        <ele>3.12</ele>
        <time>2010-05-01T09:26:40Z</time>
      </trkpt>
      <trkpt lat="43.17501" lon="6.63981">
        <ele>3.999</ele>
        <time>2010-05-01T09:26:59Z</time>
      </trkpt>
      <trkpt lat="43.17507" lon="6.63982">
        <ele>3.85</ele>
        <time>2010-05-01T09:27:42Z</time>
      </trkpt>
      <trkpt lat="43.17515" lon="6.63986">
        <ele>3.979</ele>
        <time>2010-05-01T09:27:51Z</time>
      </trkpt>
      <trkpt lat="43.17519" lon="6.63988">
        <ele>6.012</ele>
        <time>2010-05-01T09:27:56Z</time>
      </trkpt>
      <trkpt lat="43.17533" lon="6.63994">
        <ele>9.168</ele>
        <time>2010-05-01T09:28:18Z</time>
      </trkpt>
      <trkpt lat="43.17539" lon="6.63998">
        <ele>9.238</ele>
        <time>2010-05-01T09:28:24Z</time>
      </trkpt>
      <trkpt lat="43.17549" lon="6.63994">
        <ele>6.282</ele>
        <time>2010-05-01T09:28:46Z</time>
      </trkpt>
      <trkpt lat="43.17552" lon="6.63984">
        <ele>7.182</ele>
        <time>2010-05-01T09:29:10Z</time>
      </trkpt>
      <trkpt lat="43.17557" lon="6.63972">
        <ele>9.765</ele>
        <time>2010-05-01T09:29:29Z</time>
      </trkpt>
      <trkpt lat="43.17557" lon="6.63969">
        <ele>10.384</ele>
        <time>2010-05-01T09:29:32Z</time>
      </trkpt>
      <trkpt lat="43.17569" lon="6.63945">
        <ele>13.151</ele>
        <time>2010-05-01T09:29:57Z</time>
      </trkpt>
      <trkpt lat="43.17577" lon="6.63933">
        <ele>15.692</ele>
        <time>2010-05-01T09:30:23Z</time>
      </trkpt>
      <trkpt lat="43.17582" lon="6.63921">
        <ele>17.488</ele>
        <time>2010-05-01T09:30:47Z</time>
      </trkpt>
      <trkpt lat="43.17593" lon="6.63905">
        <ele>21.012</ele>
        <time>2010-05-01T09:31:05Z</time>
      </trkpt>
      <trkpt lat="43.17607" lon="6.63884">
        <ele>21.73</ele>
        <time>2010-05-01T09:31:27Z</time>
      </trkpt>
      <trkpt lat="43.17623" lon="6.63855">
        <ele>21.172</ele>
        <time>2010-05-01T09:31:56Z</time>
      </trkpt>
      <trkpt lat="43.17629" lon="6.63833">
        <ele>22.379</ele>
        <time>2010-05-01T09:32:15Z</time>
      </trkpt>
      <trkpt lat="43.17632" lon="6.63827">
        <ele>23.33</ele>
        <time>2010-05-01T09:32:20Z</time>
      </trkpt>
      <trkpt lat="43.17634" lon="6.63818">
        <ele>24.248</ele>
        <time>2010-05-01T09:32:27Z</time>
      </trkpt>
      <trkpt lat="43.17637" lon="6.63806">
        <ele>24.969</ele>
        <time>2010-05-01T09:32:37Z</time>
      </trkpt>
      <trkpt lat="43.17641" lon="6.63773">
        <ele>26.753</ele>
        <time>2010-05-01T09:32:59Z</time>
      </trkpt>
      <trkpt lat="43.17644" lon="6.63765">
        <ele>25.754</ele>
        <time>2010-05-01T09:33:05Z</time>
      </trkpt>
      <trkpt lat="43.17644" lon="6.63761">
        <ele>26.881</ele>
        <time>2010-05-01T09:33:08Z</time>
      </trkpt>
      <trkpt lat="43.17648" lon="6.63749">
        <ele>25.528</ele>
        <time>2010-05-01T09:33:26Z</time>
      </trkpt>
      <trkpt lat="43.17648" lon="6.63734">
        <ele>24.391</ele>
        <time>2010-05-01T09:34:27Z</time>
      </trkpt>
      <trkpt lat="43.17649" lon="6.63724">
        <ele>25.201</ele>
        <time>2010-05-01T09:34:34Z</time>
      </trkpt>
      <trkpt lat="43.17657" lon="6.63697">
        <ele>30.962</ele>
        <time>2010-05-01T09:34:56Z</time>
      </trkpt>
      <trkpt lat="43.17659" lon="6.63673">
        <ele>36.63</ele>
        <time>2010-05-01T09:35:15Z</time>
      </trkpt>
      <trkpt lat="43.17664" lon="6.63657">
        <ele>41.502</ele>
        <time>2010-05-01T09:35:30Z</time>
      </trkpt>
      <trkpt lat="43.17672" lon="6.6363">
        <ele>50.506</ele>
        <time>2010-05-01T09:35:57Z</time>
      </trkpt>
      <trkpt lat="43.17676" lon="6.6362">
        <ele>54.394</ele>
        <time>2010-05-01T09:36:08Z</time>
      </trkpt>
      <trkpt lat="43.17682" lon="6.63603">
        <ele>57.924</ele>
        <time>2010-05-01T09:36:27Z</time>
      </trkpt>
      <trkpt lat="43.17684" lon="6.63598">
        <ele>59.204</ele>
        <time>2010-05-01T09:36:33Z</time>
      </trkpt>
      <trkpt lat="43.17698" lon="6.63579">
        <ele>60.266</ele>
        <time>2010-05-01T09:36:54Z</time>
      </trkpt>
      <trkpt lat="43.17706" lon="6.63561">
        <ele>62.919</ele>
        <time>2010-05-01T09:37:10Z</time>
      </trkpt>
      <trkpt lat="43.17709" lon="6.63551">
        <ele>64.537</ele>
        <time>2010-05-01T09:37:20Z</time>
      </trkpt>
      <trkpt lat="43.17731" lon="6.63519">
        <ele>49.436</ele>
        <time>2010-05-01T09:37:44Z</time>
      </trkpt>
      <trkpt lat="43.17748" lon="6.63497">
        <ele>41.356</ele>
        <time>2010-05-01T09:38:10Z</time>
      </trkpt>
      <trkpt lat="43.17748" lon="6.63495">
        <ele>41.5</ele>
        <time>2010-05-01T09:38:11Z</time>
      </trkpt>
      <trkpt lat="43.17759" lon="6.63484">
        <ele>41.463</ele>
        <time>2010-05-01T09:38:27Z</time>
      </trkpt>
      <trkpt lat="43.17765" lon="6.63478">
        <ele>45.591</ele>
        <time>2010-05-01T09:38:36Z</time>
      </trkpt>
      <trkpt lat="43.17769" lon="6.63476">
        <ele>46.811</ele>
        <time>2010-05-01T09:38:42Z</time>
      </trkpt>
      <trkpt lat="43.1778" lon="6.63472">
        <ele>49.354</ele>
        <time>2010-05-01T09:38:57Z</time>
      </trkpt>
      <trkpt lat="43.17783" lon="6.63473">
        <ele>50.258</ele>
        <time>2010-05-01T09:39:00Z</time>
      </trkpt>
      <trkpt lat="43.17791" lon="6.63479">
        <ele>53.173</ele>
        <time>2010-05-01T09:39:29Z</time>
      </trkpt>
      <trkpt lat="43.17791" lon="6.6348">
        <ele>55.738</ele>
        <time>2010-05-01T09:39:56Z</time>
      </trkpt>
      <trkpt lat="43.17799" lon="6.63482">
        <ele>55.54</ele>
        <time>2010-05-01T09:40:37Z</time>
      </trkpt>
      <trkpt lat="43.17808" lon="6.63481">
        <ele>56.198</ele>
        <time>2010-05-01T09:40:57Z</time>
      </trkpt>
      <trkpt lat="43.17808" lon="6.63483">
        <ele>55.814</ele>
        <time>2010-05-01T09:41:25Z</time>
      </trkpt>
      <trkpt lat="43.17812" lon="6.63484">
        <ele>55.628</ele>
        <time>2010-05-01T10:30:29Z</time>
      </trkpt>
      <trkpt lat="43.17812" lon="6.63484">
        <ele>56.268</ele>
        <time>2010-05-01T10:33:34Z</time>
      </trkpt>
      <trkpt lat="43.17804" lon="6.6348">
        <ele>57.155</ele>
        <time>2010-05-01T10:34:30Z</time>
      </trkpt>
      <trkpt lat="43.17793" lon="6.6348">
        <ele>55.819</ele>
        <time>2010-05-01T10:34:59Z</time>
      </trkpt>
      <trkpt lat="43.17788" lon="6.63473">
        <ele>55.285</ele>
        <time>2010-05-01T10:35:11Z</time>
      </trkpt>
      <trkpt lat="43.17779" lon="6.63469">
        <ele>55.712</ele>
        <time>2010-05-01T10:35:21Z</time>
      </trkpt>
      <trkpt lat="43.17775" lon="6.63469">
        <ele>54.908</ele>
        <time>2010-05-01T10:35:25Z</time>
      </trkpt>
      <trkpt lat="43.17758" lon="6.63472">
        <ele>54.292</ele>
        <time>2010-05-01T10:35:42Z</time>
      </trkpt>
      <trkpt lat="43.17746" lon="6.63476">
        <ele>52.135</ele>
        <time>2010-05-01T10:35:55Z</time>
      </trkpt>
      <trkpt lat="43.17735" lon="6.6349">
        <ele>53.582</ele>
        <time>2010-05-01T10:36:16Z</time>
      </trkpt>
      <trkpt lat="43.1772" lon="6.63509">
        <ele>50.344</ele>
        <time>2010-05-01T10:36:40Z</time>
      </trkpt>
      <trkpt lat="43.17705" lon="6.63531">
        <ele>49.565</ele>
        <time>2010-05-01T10:37:06Z</time>
      </trkpt>
      <trkpt lat="43.17698" lon="6.63546">
        <ele>46.519</ele>
        <time>2010-05-01T10:37:28Z</time>
      </trkpt>
      <trkpt lat="43.17685" lon="6.63562">
        <ele>43.154</ele>
        <time>2010-05-01T10:37:54Z</time>
      </trkpt>
      <trkpt lat="43.17672" lon="6.63576">
        <ele>36.291</ele>
        <time>2010-05-01T10:38:15Z</time>
      </trkpt>
      <trkpt lat="43.17663" lon="6.63592">
        <ele>32.35</ele>
        <time>2010-05-01T10:38:39Z</time>
      </trkpt>
      <trkpt lat="43.17657" lon="6.63605">
        <ele>30.467</ele>
        <time>2010-05-01T10:38:56Z</time>
      </trkpt>
      <trkpt lat="43.17644" lon="6.63627">
        <ele>26.399</ele>
        <time>2010-05-01T10:39:19Z</time>
      </trkpt>
      <trkpt lat="43.17638" lon="6.63634">
        <ele>25.559</ele>
        <time>2010-05-01T10:39:33Z</time>
      </trkpt>
      <trkpt lat="43.17632" lon="6.63651">
        <ele>22.535</ele>
        <time>2010-05-01T10:39:54Z</time>
      </trkpt>
      <trkpt lat="43.17627" lon="6.63661">
        <ele>22.692</ele>
        <time>2010-05-01T10:40:03Z</time>
      </trkpt>
      <trkpt lat="43.17622" lon="6.63686">
        <ele>21.658</ele>
        <time>2010-05-01T10:40:26Z</time>
      </trkpt>
      <trkpt lat="43.17626" lon="6.63704">
        <ele>21.26</ele>
        <time>2010-05-01T10:40:45Z</time>
      </trkpt>
      <trkpt lat="43.17622" lon="6.6372">
        <ele>21.453</ele>
        <time>2010-05-01T10:41:07Z</time>
      </trkpt>
      <trkpt lat="43.17611" lon="6.63725">
        <ele>22.323</ele>
        <time>2010-05-01T10:41:24Z</time>
      </trkpt>
      <trkpt lat="43.17606" lon="6.63731">
        <ele>22.155</ele>
        <time>2010-05-01T10:41:32Z</time>
      </trkpt>
      <trkpt lat="43.17611" lon="6.6375">
        <ele>21.543</ele>
        <time>2010-05-01T10:41:53Z</time>
      </trkpt>
      <trkpt lat="43.17604" lon="6.63774">
        <ele>18.517</ele>
        <time>2010-05-01T10:42:16Z</time>
      </trkpt>
      <trkpt lat="43.17603" lon="6.63781">
        <ele>19.066</ele>
        <time>2010-05-01T10:42:21Z</time>
      </trkpt>
      <trkpt lat="43.17603" lon="6.63787">
        <ele>20.325</ele>
        <time>2010-05-01T10:42:27Z</time>
      </trkpt>
      <trkpt lat="43.17594" lon="6.63806">
        <ele>19.718</ele>
        <time>2010-05-01T10:42:48Z</time>
      </trkpt>
      <trkpt lat="43.17587" lon="6.63826">
        <ele>16.163</ele>
        <time>2010-05-01T10:43:11Z</time>
      </trkpt>
      <trkpt lat="43.1758" lon="6.63845">
        <ele>11.549</ele>
        <time>2010-05-01T10:43:32Z</time>
      </trkpt>
      <trkpt lat="43.17567" lon="6.63861">
        <ele>10.128</ele>
        <time>2010-05-01T10:43:55Z</time>
      </trkpt>
      <trkpt lat="43.17564" lon="6.63863">
        <ele>9.705</ele>
        <time>2010-05-01T10:43:58Z</time>
      </trkpt>
      <trkpt lat="43.1756" lon="6.63884">
        <ele>10.192</ele>
        <time>2010-05-01T10:44:20Z</time>
      </trkpt>
      <trkpt lat="43.1756" lon="6.63908">
        <ele>8.447</ele>
        <time>2010-05-01T10:44:43Z</time>
      </trkpt>
      <trkpt lat="43.17554" lon="6.63924">
        <ele>7.474</ele>
        <time>2010-05-01T10:45:04Z</time>
      </trkpt>
      <trkpt lat="43.17544" lon="6.63944">
        <ele>7.27</ele>
        <time>2010-05-01T10:45:26Z</time>
      </trkpt>
      <trkpt lat="43.1754" lon="6.63954">
        <ele>7.87</ele>
        <time>2010-05-01T10:45:36Z</time>
      </trkpt>
      <trkpt lat="43.17535" lon="6.6398">
        <ele>9.925</ele>
        <time>2010-05-01T10:45:59Z</time>
      </trkpt>
      <trkpt lat="43.17534" lon="6.63997">
        <ele>9.47</ele>
        <time>2010-05-01T10:46:20Z</time>
      </trkpt>
      <trkpt lat="43.17533" lon="6.63997">
        <ele>9.259</ele>
        <time>2010-05-01T10:46:52Z</time>
      </trkpt>
      <trkpt lat="43.17532" lon="6.63997">
        <ele>9.174</ele>
        <time>2010-05-01T10:46:53Z</time>
      </trkpt>
      <trkpt lat="43.17528" lon="6.63996">
        <ele>8.916</ele>
        <time>2010-05-01T10:47:02Z</time>
      </trkpt>
      <trkpt lat="43.17522" lon="6.63994">
        <ele>8.807</ele>
        <time>2010-05-01T10:47:08Z</time>
      </trkpt>
      <trkpt lat="43.17506" lon="6.63986">
        <ele>8.457</ele>
        <time>2010-05-01T10:47:25Z</time>
      </trkpt>
      <trkpt lat="43.17499" lon="6.63987">
        <ele>8.026</ele>
        <time>2010-05-01T10:47:54Z</time>
      </trkpt>
      <trkpt lat="43.17499" lon="6.63982">
        <ele>5.822</ele>
        <time>2010-05-01T10:48:26Z</time>
      </trkpt>
      <trkpt lat="43.17481" lon="6.63984">
        <ele>7.392</ele>
        <time>2010-05-01T10:48:50Z</time>
      </trkpt>
      <trkpt lat="43.17453" lon="6.63987">
        <ele>9.022</ele>
        <time>2010-05-01T10:49:19Z</time>
      </trkpt>
      <trkpt lat="43.17429" lon="6.63984">
        <ele>9.024</ele>
        <time>2010-05-01T10:49:46Z</time>
      </trkpt>
      <trkpt lat="43.17415" lon="6.6397">
        <ele>6.982</ele>
        <time>2010-05-01T10:50:05Z</time>
      </trkpt>
      <trkpt lat="43.17395" lon="6.63961">
        <ele>6.739</ele>
        <time>2010-05-01T10:50:27Z</time>
      </trkpt>
      <trkpt lat="43.17387" lon="6.63949">
        <ele>6.535</ele>
        <time>2010-05-01T10:50:39Z</time>
      </trkpt>
      <trkpt lat="43.17374" lon="6.63945">
        <ele>4.578</ele>
        <time>2010-05-01T10:50:52Z</time>
      </trkpt>
      <trkpt lat="43.17355" lon="6.63929">
        <ele>4.381</ele>
        <time>2010-05-01T10:51:14Z</time>
      </trkpt>
      <trkpt lat="43.1733" lon="6.63918">
        <ele>5.481</ele>
        <time>2010-05-01T10:51:41Z</time>
      </trkpt>
      <trkpt lat="43.17314" lon="6.63923">
        <ele>3.497</ele>
        <time>2010-05-01T10:52:05Z</time>
      </trkpt>
      <trkpt lat="43.17308" lon="6.63927">
        <ele>2.648</ele>
        <time>2010-05-01T10:52:11Z</time>
      </trkpt>
      <trkpt lat="43.17302" lon="6.63929">
        <ele>2.988</ele>
        <time>2010-05-01T10:52:18Z</time>
      </trkpt>
      <trkpt lat="43.17291" lon="6.63947">
        <ele>0.039</ele>
        <time>2010-05-01T10:52:42Z</time>
      </trkpt>
      <trkpt lat="43.17289" lon="6.63952">
        <ele>0.038</ele>
        <time>2010-05-01T10:52:47Z</time>
      </trkpt>
      <trkpt lat="43.17276" lon="6.63968">
        <ele>0.11</ele>
        <time>2010-05-01T10:53:08Z</time>
      </trkpt>
      <trkpt lat="43.17265" lon="6.63978">
        <ele>-0.013</ele>
        <time>2010-05-01T10:53:22Z</time>
      </trkpt>
      <trkpt lat="43.17253" lon="6.63985">
        <ele>-0.145</ele>
        <time>2010-05-01T10:53:35Z</time>
      </trkpt>
      <trkpt lat="43.17236" lon="6.63996">
        <ele>-5.137</ele>
        <time>2010-05-01T10:53:58Z</time>
      </trkpt>
      <trkpt lat="43.17228" lon="6.63999">
        <ele>-5.523</ele>
        <time>2010-05-01T10:54:21Z</time>
      </trkpt>
      <trkpt lat="43.17223" lon="6.64009">
        <ele>-2.775</ele>
        <time>2010-05-01T10:54:56Z</time>
      </trkpt>
      <trkpt lat="43.17217" lon="6.64019">
        <ele>0.008</ele>
        <time>2010-05-01T10:55:17Z</time>
      </trkpt>
      <trkpt lat="43.17216" lon="6.64025">
        <ele>0.654</ele>
        <time>2010-05-01T10:55:44Z</time>
      </trkpt>
      <trkpt lat="43.17216" lon="6.64031">
        <ele>0.795</ele>
        <time>2010-05-01T10:55:56Z</time>
      </trkpt>
      <trkpt lat="43.17217" lon="6.64037">
        <ele>0.675</ele>
        <time>2010-05-01T10:56:00Z</time>
      </trkpt>
      <trkpt lat="43.17221" lon="6.64066">
        <ele>3.754</ele>
        <time>2010-05-01T10:56:22Z</time>
      </trkpt>
      <trkpt lat="43.17226" lon="6.64078">
        <ele>5.252</ele>
        <time>2010-05-01T10:56:33Z</time>
      </trkpt>
      <trkpt lat="43.17223" lon="6.64114">
        <ele>6.234</ele>
        <time>2010-05-01T10:57:01Z</time>
      </trkpt>
      <trkpt lat="43.17222" lon="6.64152">
        <ele>8.059</ele>
        <time>2010-05-01T10:57:28Z</time>
      </trkpt>
      <trkpt lat="43.17223" lon="6.64159">
        <ele>7.365</ele>
        <time>2010-05-01T10:57:33Z</time>
      </trkpt>
      <trkpt lat="43.17221" lon="6.64178">
        <ele>10.105</ele>
        <time>2010-05-01T10:57:57Z</time>
      </trkpt>
      <trkpt lat="43.1722" lon="6.64195">
        <ele>8.783</ele>
        <time>2010-05-01T10:58:15Z</time>
      </trkpt>
      <trkpt lat="43.17216" lon="6.64207">
        <ele>6.86</ele>
        <time>2010-05-01T10:58:25Z</time>
      </trkpt>
      <trkpt lat="43.17202" lon="6.64229">
        <ele>3.048</ele>
        <time>2010-05-01T10:58:48Z</time>
      </trkpt>
      <trkpt lat="43.17193" lon="6.64243">
        <ele>5.143</ele>
        <time>2010-05-01T10:59:10Z</time>
      </trkpt>
      <trkpt lat="43.17186" lon="6.64255">
        <ele>5.471</ele>
        <time>2010-05-01T10:59:28Z</time>
      </trkpt>
      <trkpt lat="43.17181" lon="6.64275">
        <ele>3.411</ele>
        <time>2010-05-01T10:59:49Z</time>
      </trkpt>
      <trkpt lat="43.17177" lon="6.64291">
        <ele>2.962</ele>
        <time>2010-05-01T11:00:15Z</time>
      </trkpt>
      <trkpt lat="43.17177" lon="6.64305">
        <ele>0.254</ele>
        <time>2010-05-01T11:00:32Z</time>
      </trkpt>
      <trkpt lat="43.17172" lon="6.64316">
        <ele>-1.22</ele>
        <time>2010-05-01T11:00:43Z</time>
      </trkpt>
      <trkpt lat="43.17168" lon="6.64332">
        <ele>-1.462</ele>
        <time>2010-05-01T11:01:03Z</time>
      </trkpt>
      <trkpt lat="43.17164" lon="6.64341">
        <ele>1.59</ele>
        <time>2010-05-01T11:01:18Z</time>
      </trkpt>
      <trkpt lat="43.17163" lon="6.64348">
        <ele>0.946</ele>
        <time>2010-05-01T11:01:40Z</time>
      </trkpt>
      <trkpt lat="43.17163" lon="6.64375">
        <ele>-0.611</ele>
        <time>2010-05-01T11:03:04Z</time>
      </trkpt>
      <trkpt lat="43.17159" lon="6.64386">
        <ele>-0.146</ele>
        <time>2010-05-01T11:03:28Z</time>
      </trkpt>
      <trkpt lat="43.17155" lon="6.64394">
        <ele>0.396</ele>
        <time>2010-05-01T11:03:39Z</time>
      </trkpt>
      <trkpt lat="43.17148" lon="6.64394">
        <ele>-0.361</ele>
        <time>2010-05-01T11:03:48Z</time>
      </trkpt>
      <trkpt lat="43.17139" lon="6.64402">
        <ele>-0.839</ele>
        <time>2010-05-01T11:04:08Z</time>
      </trkpt>
      <trkpt lat="43.17133" lon="6.64412">
        <ele>-0.849</ele>
        <time>2010-05-01T11:04:27Z</time>
      </trkpt>
      <trkpt lat="43.17123" lon="6.64419">
        <ele>5.183</ele>
        <time>2010-05-01T11:04:49Z</time>
      </trkpt>
      <trkpt lat="43.17117" lon="6.64427">
        <ele>3.878</ele>
        <time>2010-05-01T11:05:11Z</time>
      </trkpt>
      <trkpt lat="43.17105" lon="6.64431">
        <ele>3.214</ele>
        <time>2010-05-01T11:05:31Z</time>
      </trkpt>
      <trkpt lat="43.17101" lon="6.64429">
        <ele>4.632</ele>
        <time>2010-05-01T11:06:12Z</time>
      </trkpt>
      <trkpt lat="43.17096" lon="6.64436">
        <ele>7.213</ele>
        <time>2010-05-01T11:06:35Z</time>
      </trkpt>
      <trkpt lat="43.17088" lon="6.64457">
        <ele>8.823</ele>
        <time>2010-05-01T11:06:58Z</time>
      </trkpt>
      <trkpt lat="43.17088" lon="6.64461">
        <ele>8.717</ele>
        <time>2010-05-01T11:07:04Z</time>
      </trkpt>
      <trkpt lat="43.17085" lon="6.6447">
        <ele>8.734</ele>
        <time>2010-05-01T11:07:20Z</time>
      </trkpt>
      <trkpt lat="43.1708" lon="6.64479">
        <ele>8.028</ele>
        <time>2010-05-01T11:07:40Z</time>
      </trkpt>
      <trkpt lat="43.17078" lon="6.64491">
        <ele>5.311</ele>
        <time>2010-05-01T11:07:59Z</time>
      </trkpt>
      <trkpt lat="43.17077" lon="6.64504">
        <ele>3.321</ele>
        <time>2010-05-01T11:08:29Z</time>
      </trkpt>
      <trkpt lat="43.1707" lon="6.64522">
        <ele>4.043</ele>
        <time>2010-05-01T11:08:52Z</time>
      </trkpt>
      <trkpt lat="43.17068" lon="6.64524">
        <ele>5.696</ele>
        <time>2010-05-01T11:09:25Z</time>
      </trkpt>
      <trkpt lat="43.17069" lon="6.64522">
        <ele>7.421</ele>
        <time>2010-05-01T11:09:58Z</time>
      </trkpt>
      <trkpt lat="43.17071" lon="6.64523">
        <ele>7.751</ele>
        <time>2010-05-01T11:10:29Z</time>
      </trkpt>
      <trkpt lat="43.17073" lon="6.64509">
        <ele>8.335</ele>
        <time>2010-05-01T11:11:01Z</time>
      </trkpt>
      <trkpt lat="43.1707" lon="6.64498">
        <ele>11.991</ele>
        <time>2010-05-01T11:11:20Z</time>
      </trkpt>
      <trkpt lat="43.17067" lon="6.64491">
        <ele>17.603</ele>
        <time>2010-05-01T11:11:45Z</time>
      </trkpt>
      <trkpt lat="43.17059" lon="6.64477">
        <ele>20.318</ele>
        <time>2010-05-01T11:12:12Z</time>
      </trkpt>
      <trkpt lat="43.17052" lon="6.64473">
        <ele>23.272</ele>
        <time>2010-05-01T11:12:38Z</time>
      </trkpt>
      <trkpt lat="43.17047" lon="6.64469">
        <ele>23.426</ele>
        <time>2010-05-01T11:13:18Z</time>
      </trkpt>
      <trkpt lat="43.17041" lon="6.64465">
        <ele>22.396</ele>
        <time>2010-05-01T11:13:41Z</time>
      </trkpt>
      <trkpt lat="43.17036" lon="6.64465">
        <ele>24.925</ele>
        <time>2010-05-01T11:14:05Z</time>
      </trkpt>
      <trkpt lat="43.17031" lon="6.64457">
        <ele>29.79</ele>
        <time>2010-05-01T11:14:24Z</time>
      </trkpt>
      <trkpt lat="43.17036" lon="6.64445">
        <ele>34.431</ele>
        <time>2010-05-01T11:14:56Z</time>
      </trkpt>
      <trkpt lat="43.1703" lon="6.64443">
        <ele>35.25</ele>
        <time>2010-05-01T11:15:17Z</time>
      </trkpt>
      <trkpt lat="43.17022" lon="6.64441">
        <ele>40.48</ele>
        <time>2010-05-01T11:15:34Z</time>
      </trkpt>
      <trkpt lat="43.17011" lon="6.64439">
        <ele>37.635</ele>
        <time>2010-05-01T11:15:54Z</time>
      </trkpt>
      <trkpt lat="43.17001" lon="6.64443">
        <ele>40.345</ele>
        <time>2010-05-01T11:16:19Z</time>
      </trkpt>
      <trkpt lat="43.16996" lon="6.64443">
        <ele>40.451</ele>
        <time>2010-05-01T11:16:26Z</time>
      </trkpt>
      <trkpt lat="43.16988" lon="6.64441">
        <ele>37.41</ele>
        <time>2010-05-01T11:16:51Z</time>
      </trkpt>
      <trkpt lat="43.16967" lon="6.64441">
        <ele>38.019</ele>
        <time>2010-05-01T11:17:18Z</time>
      </trkpt>
      <trkpt lat="43.16966" lon="6.64444">
        <ele>38.042</ele>
        <time>2010-05-01T11:17:21Z</time>
      </trkpt>
      <trkpt lat="43.1696" lon="6.64466">
        <ele>40.807</ele>
        <time>2010-05-01T11:17:44Z</time>
      </trkpt>
      <trkpt lat="43.1695" lon="6.64482">
        <ele>43.853</ele>
        <time>2010-05-01T11:18:08Z</time>
      </trkpt>
      <trkpt lat="43.16941" lon="6.64492">
        <ele>46.456</ele>
        <time>2010-05-01T11:18:31Z</time>
      </trkpt>
      <trkpt lat="43.16925" lon="6.64499">
        <ele>43.211</ele>
        <time>2010-05-01T11:18:55Z</time>
      </trkpt>
      <trkpt lat="43.1692" lon="6.64516">
        <ele>44.051</ele>
        <time>2010-05-01T11:19:23Z</time>
      </trkpt>
      <trkpt lat="43.16909" lon="6.64531">
        <ele>46.044</ele>
        <time>2010-05-01T11:19:48Z</time>
      </trkpt>
      <trkpt lat="43.16899" lon="6.64545">
        <ele>48.507</ele>
        <time>2010-05-01T11:20:12Z</time>
      </trkpt>
      <trkpt lat="43.16888" lon="6.64558">
        <ele>49.186</ele>
        <time>2010-05-01T11:20:36Z</time>
      </trkpt>
      <trkpt lat="43.16888" lon="6.64577">
        <ele>55.804</ele>
        <time>2010-05-01T11:21:03Z</time>
      </trkpt>
      <trkpt lat="43.16889" lon="6.64579">
        <ele>57.801</ele>
        <time>2010-05-01T11:21:24Z</time>
      </trkpt>
      <trkpt lat="43.16891" lon="6.64579">
        <ele>57.849</ele>
        <time>2010-05-01T11:22:19Z</time>
      </trkpt>
      <trkpt lat="43.1689" lon="6.64583">
        <ele>56.587</ele>
        <time>2010-05-01T11:23:20Z</time>
      </trkpt>
      <trkpt lat="43.1689" lon="6.64584">
        <ele>57.196</ele>
        <time>2010-05-01T11:23:51Z</time>
      </trkpt>
      <trkpt lat="43.16891" lon="6.64584">
        <ele>57.832</ele>
        <time>2010-05-01T11:25:11Z</time>
      </trkpt>
      <trkpt lat="43.16891" lon="6.64585">
        <ele>56.987</ele>
        <time>2010-05-01T11:27:17Z</time>
      </trkpt>
      <trkpt lat="43.16889" lon="6.64583">
        <ele>56.993</ele>
        <time>2010-05-01T11:31:59Z</time>
      </trkpt>
      <trkpt lat="43.16885" lon="6.64573">
        <ele>56.916</ele>
        <time>2010-05-01T11:33:19Z</time>
      </trkpt>
      <trkpt lat="43.16889" lon="6.64559">
        <ele>55.537</ele>
        <time>2010-05-01T11:33:42Z</time>
      </trkpt>
      <trkpt lat="43.16892" lon="6.64552">
        <ele>54.884</ele>
        <time>2010-05-01T11:33:48Z</time>
      </trkpt>
      <trkpt lat="43.16906" lon="6.64536">
        <ele>51.913</ele>
        <time>2010-05-01T11:34:12Z</time>
      </trkpt>
      <trkpt lat="43.16916" lon="6.64524">
        <ele>47.688</ele>
        <time>2010-05-01T11:34:33Z</time>
      </trkpt>
      <trkpt lat="43.16919" lon="6.64507">
        <ele>46.275</ele>
        <time>2010-05-01T11:34:53Z</time>
      </trkpt>
      <trkpt lat="43.16929" lon="6.64493">
        <ele>42.821</ele>
        <time>2010-05-01T11:35:18Z</time>
      </trkpt>
      <trkpt lat="43.16934" lon="6.64491">
        <ele>42.593</ele>
        <time>2010-05-01T11:35:26Z</time>
      </trkpt>
      <trkpt lat="43.16945" lon="6.64494">
        <ele>38.884</ele>
        <time>2010-05-01T11:35:45Z</time>
      </trkpt>
      <trkpt lat="43.16952" lon="6.64482">
        <ele>36.694</ele>
        <time>2010-05-01T11:36:03Z</time>
      </trkpt>
      <trkpt lat="43.16958" lon="6.6447">
        <ele>35.589</ele>
        <time>2010-05-01T11:36:20Z</time>
      </trkpt>
      <trkpt lat="43.16963" lon="6.64455">
        <ele>31.634</ele>
        <time>2010-05-01T11:36:41Z</time>
      </trkpt>
      <trkpt lat="43.16969" lon="6.64439">
        <ele>30.546</ele>
        <time>2010-05-01T11:36:56Z</time>
      </trkpt>
      <trkpt lat="43.16983" lon="6.64421">
        <ele>34.725</ele>
        <time>2010-05-01T11:37:19Z</time>
      </trkpt>
      <trkpt lat="43.16988" lon="6.64413">
        <ele>37.946</ele>
        <time>2010-05-01T11:37:37Z</time>
      </trkpt>
      <trkpt lat="43.16992" lon="6.64395">
        <ele>36.81</ele>
        <time>2010-05-01T11:37:56Z</time>
      </trkpt>
      <trkpt lat="43.16989" lon="6.64383">
        <ele>31.327</ele>
        <time>2010-05-01T11:38:14Z</time>
      </trkpt>
      <trkpt lat="43.1699" lon="6.64375">
        <ele>29.476</ele>
        <time>2010-05-01T11:38:24Z</time>
      </trkpt>
      <trkpt lat="43.16998" lon="6.64367">
        <ele>29.772</ele>
        <time>2010-05-01T11:38:43Z</time>
      </trkpt>
      <trkpt lat="43.16997" lon="6.64359">
        <ele>30.88</ele>
        <time>2010-05-01T11:39:04Z</time>
      </trkpt>
      <trkpt lat="43.1701" lon="6.64343">
        <ele>33.067</ele>
        <time>2010-05-01T11:39:28Z</time>
      </trkpt>
      <trkpt lat="43.17012" lon="6.64337">
        <ele>27.602</ele>
        <time>2010-05-01T11:39:53Z</time>
      </trkpt>
      <trkpt lat="43.17016" lon="6.64334">
        <ele>27.876</ele>
        <time>2010-05-01T11:40:18Z</time>
      </trkpt>
      <trkpt lat="43.17021" lon="6.64334">
        <ele>27.92</ele>
        <time>2010-05-01T11:40:41Z</time>
      </trkpt>
      <trkpt lat="43.17009" lon="6.64336">
        <ele>26.91</ele>
        <time>2010-05-01T11:41:03Z</time>
      </trkpt>
      <trkpt lat="43.17011" lon="6.64335">
        <ele>26.974</ele>
        <time>2010-05-01T11:41:42Z</time>
      </trkpt>
      <trkpt lat="43.17015" lon="6.64323">
        <ele>25.019</ele>
        <time>2010-05-01T11:42:12Z</time>
      </trkpt>
      <trkpt lat="43.17024" lon="6.64309">
        <ele>21.012</ele>
        <time>2010-05-01T11:42:41Z</time>
      </trkpt>
      <trkpt lat="43.17032" lon="6.64299">
        <ele>19.626</ele>
        <time>2010-05-01T11:43:05Z</time>
      </trkpt>
      <trkpt lat="43.17032" lon="6.6429">
        <ele>18.7</ele>
        <time>2010-05-01T11:43:34Z</time>
      </trkpt>
      <trkpt lat="43.1704" lon="6.64284">
        <ele>16.599</ele>
        <time>2010-05-01T11:43:55Z</time>
      </trkpt>
      <trkpt lat="43.17053" lon="6.64264">
        <ele>19.59</ele>
        <time>2010-05-01T11:44:20Z</time>
      </trkpt>
      <trkpt lat="43.1706" lon="6.6426">
        <ele>21.299</ele>
        <time>2010-05-01T11:44:41Z</time>
      </trkpt>
      <trkpt lat="43.17067" lon="6.64259">
        <ele>22.802</ele>
        <time>2010-05-01T11:45:03Z</time>
      </trkpt>
      <trkpt lat="43.17073" lon="6.64239">
        <ele>25.247</ele>
        <time>2010-05-01T11:45:28Z</time>
      </trkpt>
      <trkpt lat="43.17083" lon="6.64226">
        <ele>26.315</ele>
        <time>2010-05-01T11:45:48Z</time>
      </trkpt>
      <trkpt lat="43.17089" lon="6.64223">
        <ele>25.358</ele>
        <time>2010-05-01T11:46:11Z</time>
      </trkpt>
      <trkpt lat="43.17083" lon="6.64216">
        <ele>22.339</ele>
        <time>2010-05-01T11:46:33Z</time>
      </trkpt>
      <trkpt lat="43.17095" lon="6.64203">
        <ele>20.134</ele>
        <time>2010-05-01T11:47:17Z</time>
      </trkpt>
      <trkpt lat="43.17096" lon="6.6419">
        <ele>18.695</ele>
        <time>2010-05-01T11:47:59Z</time>
      </trkpt>
      <trkpt lat="43.17107" lon="6.64186">
        <ele>18.194</ele>
        <time>2010-05-01T11:48:23Z</time>
      </trkpt>
      <trkpt lat="43.17128" lon="6.64196">
        <ele>15.596</ele>
        <time>2010-05-01T11:48:56Z</time>
      </trkpt>
      <trkpt lat="43.1713" lon="6.64195">
        <ele>14.93</ele>
        <time>2010-05-01T11:48:57Z</time>
      </trkpt>
      <trkpt lat="43.17158" lon="6.64183">
        <ele>12.443</ele>
        <time>2010-05-01T11:49:30Z</time>
      </trkpt>
      <trkpt lat="43.1718" lon="6.64171">
        <ele>8.775</ele>
        <time>2010-05-01T11:49:53Z</time>
      </trkpt>
      <trkpt lat="43.17181" lon="6.64171">
        <ele>8.67</ele>
        <time>2010-05-01T11:49:54Z</time>
      </trkpt>
      <trkpt lat="43.17194" lon="6.64153">
        <ele>6.048</ele>
        <time>2010-05-01T11:50:17Z</time>
      </trkpt>
      <trkpt lat="43.17199" lon="6.6414">
        <ele>3.665</ele>
        <time>2010-05-01T11:50:34Z</time>
      </trkpt>
      <trkpt lat="43.17201" lon="6.64138">
        <ele>2.639</ele>
        <time>2010-05-01T11:50:38Z</time>
      </trkpt>
      <trkpt lat="43.17202" lon="6.64117">
        <ele>-3.204</ele>
        <time>2010-05-01T11:50:56Z</time>
      </trkpt>
      <trkpt lat="43.17212" lon="6.64097">
        <ele>-5.171</ele>
        <time>2010-05-01T11:51:15Z</time>
      </trkpt>
      <trkpt lat="43.17219" lon="6.64086">
        <ele>-6.262</ele>
        <time>2010-05-01T11:51:26Z</time>
      </trkpt>
      <trkpt lat="43.17221" lon="6.64067">
        <ele>-8.072</ele>
        <time>2010-05-01T11:51:53Z</time>
      </trkpt>
      <trkpt lat="43.17219" lon="6.64066">
        <ele>-8.011</ele>
        <time>2010-05-01T11:51:55Z</time>
      </trkpt>
      <trkpt lat="43.17215" lon="6.64056">
        <ele>-6.532</ele>
        <time>2010-05-01T11:52:10Z</time>
      </trkpt>
      <trkpt lat="43.17215" lon="6.64038">
        <ele>-6.411</ele>
        <time>2010-05-01T11:52:18Z</time>
      </trkpt>
      <trkpt lat="43.17216" lon="6.64019">
        <ele>-7.458</ele>
        <time>2010-05-01T11:52:32Z</time>
      </trkpt>
      <trkpt lat="43.17222" lon="6.64006">
        <ele>-6.74</ele>
        <time>2010-05-01T11:52:51Z</time>
      </trkpt>
      <trkpt lat="43.17229" lon="6.63991">
        <ele>-7.949</ele>
        <time>2010-05-01T11:53:11Z</time>
      </trkpt>
      <trkpt lat="43.17246" lon="6.63978">
        <ele>-9.934</ele>
        <time>2010-05-01T11:53:34Z</time>
      </trkpt>
      <trkpt lat="43.17269" lon="6.63963">
        <ele>-10.345</ele>
        <time>2010-05-01T11:54:02Z</time>
      </trkpt>
      <trkpt lat="43.17285" lon="6.63949">
        <ele>-10.248</ele>
        <time>2010-05-01T11:54:26Z</time>
      </trkpt>
      <trkpt lat="43.17299" lon="6.63929">
        <ele>-9.249</ele>
        <time>2010-05-01T11:54:53Z</time>
      </trkpt>
      <trkpt lat="43.173" lon="6.63927">
        <ele>-8.332</ele>
        <time>2010-05-01T11:54:55Z</time>
      </trkpt>
      <trkpt lat="43.17296" lon="6.63926">
        <ele>-7.385</ele>
        <time>2010-05-01T11:54:59Z</time>
      </trkpt>
      <trkpt lat="43.17272" lon="6.639">
        <ele>-9.657</ele>
        <time>2010-05-01T11:55:30Z</time>
      </trkpt>
      <trkpt lat="43.17273" lon="6.63882">
        <ele>-8.303</ele>
        <time>2010-05-01T11:55:49Z</time>
      </trkpt>
      <trkpt lat="43.17266" lon="6.63861">
        <ele>-7.548</ele>
        <time>2010-05-01T11:56:08Z</time>
      </trkpt>
      <trkpt lat="43.17262" lon="6.6385">
        <ele>-6.488</ele>
        <time>2010-05-01T11:56:16Z</time>
      </trkpt>
      <trkpt lat="43.17256" lon="6.63832">
        <ele>-5.082</ele>
        <time>2010-05-01T11:56:38Z</time>
      </trkpt>
      <trkpt lat="43.17251" lon="6.63822">
        <ele>-4.828</ele>
        <time>2010-05-01T11:56:46Z</time>
      </trkpt>
      <trkpt lat="43.17251" lon="6.63806">
        <ele>-4.736</ele>
        <time>2010-05-01T11:57:04Z</time>
      </trkpt>
      <trkpt lat="43.1725" lon="6.63796">
        <ele>-5.957</ele>
        <time>2010-05-01T11:57:10Z</time>
      </trkpt>
      <trkpt lat="43.17246" lon="6.63787">
        <ele>-5.109</ele>
        <time>2010-05-01T11:57:28Z</time>
      </trkpt>
      <trkpt lat="43.17246" lon="6.63781">
        <ele>-4.963</ele>
        <time>2010-05-01T11:57:33Z</time>
      </trkpt>
      <trkpt lat="43.17248" lon="6.63775">
        <ele>-4.896</ele>
        <time>2010-05-01T11:57:40Z</time>
      </trkpt>
      <trkpt lat="43.17249" lon="6.63763">
        <ele>-7.531</ele>
        <time>2010-05-01T11:57:54Z</time>
      </trkpt>
      <trkpt lat="43.1725" lon="6.63745">
        <ele>-11.854</ele>
        <time>2010-05-01T11:58:14Z</time>
      </trkpt>
      <trkpt lat="43.17248" lon="6.63737">
        <ele>-13.075</ele>
        <time>2010-05-01T11:58:24Z</time>
      </trkpt>
      <trkpt lat="43.17255" lon="6.63724">
        <ele>-12.563</ele>
        <time>2010-05-01T11:58:44Z</time>
      </trkpt>
      <trkpt lat="43.17262" lon="6.63709">
        <ele>-14.253</ele>
        <time>2010-05-01T11:59:03Z</time>
      </trkpt>
      <trkpt lat="43.17268" lon="6.63695">
        <ele>-12.931</ele>
        <time>2010-05-01T11:59:22Z</time>
      </trkpt>
      <trkpt lat="43.1727" lon="6.63687">
        <ele>-14.712</ele>
        <time>2010-05-01T11:59:43Z</time>
      </trkpt>
      <trkpt lat="43.17273" lon="6.63665">
        <ele>-8.812</ele>
        <time>2010-05-01T12:00:10Z</time>
      </trkpt>
      <trkpt lat="43.17277" lon="6.63641">
        <ele>-7.243</ele>
        <time>2010-05-01T12:00:36Z</time>
      </trkpt>
      <trkpt lat="43.17279" lon="6.63613">
        <ele>-11.019</ele>
        <time>2010-05-01T12:01:04Z</time>
      </trkpt>
      <trkpt lat="43.17279" lon="6.63595">
        <ele>-13.004</ele>
        <time>2010-05-01T12:01:19Z</time>
      </trkpt>
      <trkpt lat="43.17281" lon="6.63593">
        <ele>-12.934</ele>
        <time>2010-05-01T12:01:21Z</time>
      </trkpt>
      <trkpt lat="43.17285" lon="6.63576">
        <ele>-16.285</ele>
        <time>2010-05-01T12:01:44Z</time>
      </trkpt>
      <trkpt lat="43.17285" lon="6.63565">
        <ele>-17.791</ele>
        <time>2010-05-01T12:01:52Z</time>
      </trkpt>
      <trkpt lat="43.17286" lon="6.6356">
        <ele>-17.825</ele>
        <time>2010-05-01T12:01:55Z</time>
      </trkpt>
      <trkpt lat="43.17283" lon="6.63531">
        <ele>-16.448</ele>
        <time>2010-05-01T12:02:21Z</time>
      </trkpt>
      <trkpt lat="43.17284" lon="6.63508">
        <ele>-18.149</ele>
        <time>2010-05-01T12:02:42Z</time>
      </trkpt>
      <trkpt lat="43.17283" lon="6.63505">
        <ele>-17.755</ele>
        <time>2010-05-01T12:02:44Z</time>
      </trkpt>
      <trkpt lat="43.17282" lon="6.63491">
        <ele>-15.692</ele>
        <time>2010-05-01T12:02:56Z</time>
      </trkpt>
      <trkpt lat="43.1728" lon="6.6348">
        <ele>-15.116</ele>
        <time>2010-05-01T12:03:05Z</time>
      </trkpt>
      <trkpt lat="43.17278" lon="6.63472">
        <ele>-14.735</ele>
        <time>2010-05-01T12:03:12Z</time>
      </trkpt>
      <trkpt lat="43.17272" lon="6.63444">
        <ele>-16.935</ele>
        <time>2010-05-01T12:03:36Z</time>
      </trkpt>
      <trkpt lat="43.17272" lon="6.63439">
        <ele>-16.219</ele>
        <time>2010-05-01T12:03:41Z</time>
      </trkpt>
      <trkpt lat="43.17268" lon="6.63426">
        <ele>-15.986</ele>
        <time>2010-05-01T12:03:52Z</time>
      </trkpt>
      <trkpt lat="43.1727" lon="6.63393">
        <ele>-15.003</ele>
        <time>2010-05-01T12:04:17Z</time>
      </trkpt>
      <trkpt lat="43.17262" lon="6.63366">
        <ele>-11.808</ele>
        <time>2010-05-01T12:04:42Z</time>
      </trkpt>
      <trkpt lat="43.17256" lon="6.63351">
        <ele>-11.292</ele>
        <time>2010-05-01T12:04:56Z</time>
      </trkpt>
      <trkpt lat="43.17256" lon="6.63338">
        <ele>-12.031</ele>
        <time>2010-05-01T12:05:19Z</time>
      </trkpt>
      <trkpt lat="43.17256" lon="6.6334">
        <ele>-11.545</ele>
        <time>2010-05-01T12:07:24Z</time>
      </trkpt>
      <trkpt lat="43.17256" lon="6.63339">
        <ele>-11.004</ele>
        <time>2010-05-01T12:13:08Z</time>
      </trkpt>
      <trkpt lat="43.17257" lon="6.63323">
        <ele>-8.185</ele>
        <time>2010-05-01T12:13:42Z</time>
      </trkpt>
      <trkpt lat="43.17252" lon="6.63298">
        <ele>-8.644</ele>
        <time>2010-05-01T12:14:07Z</time>
      </trkpt>
      <trkpt lat="43.17251" lon="6.63262">
        <ele>-13.005</ele>
        <time>2010-05-01T12:14:37Z</time>
      </trkpt>
      <trkpt lat="43.17258" lon="6.63243">
        <ele>-14.287</ele>
        <time>2010-05-01T12:14:58Z</time>
      </trkpt>
      <trkpt lat="43.17283" lon="6.63231">
        <ele>-13.763</ele>
        <time>2010-05-01T12:15:27Z</time>
      </trkpt>
      <trkpt lat="43.1729" lon="6.63229">
        <ele>-14.011</ele>
        <time>2010-05-01T12:15:36Z</time>
      </trkpt>
      <trkpt lat="43.173" lon="6.63222">
        <ele>-15.255</ele>
        <time>2010-05-01T12:15:46Z</time>
      </trkpt>
      <trkpt lat="43.17318" lon="6.632">
        <ele>-17.386</ele>
        <time>2010-05-01T12:16:10Z</time>
      </trkpt>
      <trkpt lat="43.17323" lon="6.63179">
        <ele>-15.476</ele>
        <time>2010-05-01T12:16:30Z</time>
      </trkpt>
      <trkpt lat="43.17327" lon="6.63151">
        <ele>-13.348</ele>
        <time>2010-05-01T12:16:52Z</time>
      </trkpt>
      <trkpt lat="43.17334" lon="6.63156">
        <ele>-13.487</ele>
        <time>2010-05-01T12:17:01Z</time>
      </trkpt>
      <trkpt lat="43.17342" lon="6.63163">
        <ele>-13.931</ele>
        <time>2010-05-01T12:17:11Z</time>
      </trkpt>
      <trkpt lat="43.17347" lon="6.63164">
        <ele>-13.582</ele>
        <time>2010-05-01T12:17:14Z</time>
      </trkpt>
      <trkpt lat="43.17354" lon="6.6315">
        <ele>-14.734</ele>
        <time>2010-05-01T12:17:27Z</time>
      </trkpt>
      <trkpt lat="43.17363" lon="6.63116">
        <ele>-17.008</ele>
        <time>2010-05-01T12:17:52Z</time>
      </trkpt>
      <trkpt lat="43.17369" lon="6.63087">
        <ele>-18.284</ele>
        <time>2010-05-01T12:18:14Z</time>
      </trkpt>
      <trkpt lat="43.17379" lon="6.63064">
        <ele>-14.878</ele>
        <time>2010-05-01T12:18:35Z</time>
      </trkpt>
      <trkpt lat="43.17382" lon="6.63063">
        <ele>-14.457</ele>
        <time>2010-05-01T12:18:37Z</time>
      </trkpt>
      <trkpt lat="43.17397" lon="6.63044">
        <ele>-11.557</ele>
        <time>2010-05-01T12:18:55Z</time>
      </trkpt>
      <trkpt lat="43.17415" lon="6.63026">
        <ele>-7.961</ele>
        <time>2010-05-01T12:19:17Z</time>
      </trkpt>
      <trkpt lat="43.17422" lon="6.63024">
        <ele>-5.927</ele>
        <time>2010-05-01T12:19:25Z</time>
      </trkpt>
      <trkpt lat="43.17429" lon="6.63004">
        <ele>-4.671</ele>
        <time>2010-05-01T12:19:44Z</time>
      </trkpt>
      <trkpt lat="43.1743" lon="6.62977">
        <ele>-6.937</ele>
        <time>2010-05-01T12:20:03Z</time>
      </trkpt>
      <trkpt lat="43.17433" lon="6.6297">
        <ele>-6.982</ele>
        <time>2010-05-01T12:20:09Z</time>
      </trkpt>
      <trkpt lat="43.17451" lon="6.62968">
        <ele>-6.737</ele>
        <time>2010-05-01T12:20:26Z</time>
      </trkpt>
      <trkpt lat="43.17462" lon="6.62971">
        <ele>-4.778</ele>
        <time>2010-05-01T12:20:36Z</time>
      </trkpt>
      <trkpt lat="43.17473" lon="6.62971">
        <ele>-6.746</ele>
        <time>2010-05-01T12:20:47Z</time>
      </trkpt>
      <trkpt lat="43.17479" lon="6.62968">
        <ele>-3.521</ele>
        <time>2010-05-01T12:20:54Z</time>
      </trkpt>
      <trkpt lat="43.17491" lon="6.62954">
        <ele>-4.242</ele>
        <time>2010-05-01T12:21:06Z</time>
      </trkpt>
      <trkpt lat="43.175" lon="6.6294">
        <ele>-2.984</ele>
        <time>2010-05-01T12:21:17Z</time>
      </trkpt>
      <trkpt lat="43.17502" lon="6.62939">
        <ele>-2.504</ele>
        <time>2010-05-01T12:21:19Z</time>
      </trkpt>
      <trkpt lat="43.17517" lon="6.62913">
        <ele>-4.74</ele>
        <time>2010-05-01T12:21:41Z</time>
      </trkpt>
      <trkpt lat="43.17529" lon="6.62893">
        <ele>-5.365</ele>
        <time>2010-05-01T12:22:07Z</time>
      </trkpt>
      <trkpt lat="43.1754" lon="6.62876">
        <ele>-6.342</ele>
        <time>2010-05-01T12:22:22Z</time>
      </trkpt>
      <trkpt lat="43.17543" lon="6.62868">
        <ele>-6.769</ele>
        <time>2010-05-01T12:22:28Z</time>
      </trkpt>
      <trkpt lat="43.17553" lon="6.62839">
        <ele>-6.299</ele>
        <time>2010-05-01T12:22:48Z</time>
      </trkpt>
      <trkpt lat="43.17554" lon="6.62838">
        <ele>-6.242</ele>
        <time>2010-05-01T12:22:49Z</time>
      </trkpt>
      <trkpt lat="43.17557" lon="6.62836">
        <ele>-6.125</ele>
        <time>2010-05-01T12:22:52Z</time>
      </trkpt>
      <trkpt lat="43.17566" lon="6.62821">
        <ele>-5.414</ele>
        <time>2010-05-01T12:23:05Z</time>
      </trkpt>
      <trkpt lat="43.1757" lon="6.62814">
        <ele>-3.32</ele>
        <time>2010-05-01T12:23:10Z</time>
      </trkpt>
      <trkpt lat="43.17577" lon="6.62807">
        <ele>-2.307</ele>
        <time>2010-05-01T12:23:18Z</time>
      </trkpt>
      <trkpt lat="43.17578" lon="6.62802">
        <ele>-2.11</ele>
        <time>2010-05-01T12:23:21Z</time>
      </trkpt>
      <trkpt lat="43.17582" lon="6.62795">
        <ele>-1.286</ele>
        <time>2010-05-01T12:23:29Z</time>
      </trkpt>
      <trkpt lat="43.17596" lon="6.62778">
        <ele>-1.197</ele>
        <time>2010-05-01T12:23:49Z</time>
      </trkpt>
      <trkpt lat="43.17615" lon="6.62761">
        <ele>-0.966</ele>
        <time>2010-05-01T12:24:09Z</time>
      </trkpt>
      <trkpt lat="43.1762" lon="6.62759">
        <ele>-0.87</ele>
        <time>2010-05-01T12:24:12Z</time>
      </trkpt>
      <trkpt lat="43.17647" lon="6.6273">
        <ele>-2.106</ele>
        <time>2010-05-01T12:24:39Z</time>
      </trkpt>
      <trkpt lat="43.17663" lon="6.62704">
        <ele>-4.082</ele>
        <time>2010-05-01T12:25:00Z</time>
      </trkpt>
      <trkpt lat="43.17671" lon="6.6269">
        <ele>-5.276</ele>
        <time>2010-05-01T12:25:12Z</time>
      </trkpt>
      <trkpt lat="43.17674" lon="6.62683">
        <ele>-5.259</ele>
        <time>2010-05-01T12:25:17Z</time>
      </trkpt>
      <trkpt lat="43.17692" lon="6.62662">
        <ele>-3.525</ele>
        <time>2010-05-01T12:25:37Z</time>
      </trkpt>
      <trkpt lat="43.17702" lon="6.62658">
        <ele>-2.824</ele>
        <time>2010-05-01T12:25:46Z</time>
      </trkpt>
      <trkpt lat="43.17709" lon="6.6266">
        <ele>-2.146</ele>
        <time>2010-05-01T12:25:52Z</time>
      </trkpt>
      <trkpt lat="43.17719" lon="6.62662">
        <ele>-3.996</ele>
        <time>2010-05-01T12:26:03Z</time>
      </trkpt>
      <trkpt lat="43.17734" lon="6.62657">
        <ele>-5.084</ele>
        <time>2010-05-01T12:26:16Z</time>
      </trkpt>
      <trkpt lat="43.1774" lon="6.62656">
        <ele>-5.226</ele>
        <time>2010-05-01T12:26:20Z</time>
      </trkpt>
      <trkpt lat="43.17773" lon="6.62653">
        <ele>-7.428</ele>
        <time>2010-05-01T12:26:46Z</time>
      </trkpt>
      <trkpt lat="43.17776" lon="6.62647">
        <ele>-6.036</ele>
        <time>2010-05-01T12:26:52Z</time>
      </trkpt>
      <trkpt lat="43.17785" lon="6.62644">
        <ele>-4.754</ele>
        <time>2010-05-01T12:27:01Z</time>
      </trkpt>
      <trkpt lat="43.17785" lon="6.62636">
        <ele>1.4</ele>
        <time>2010-05-01T12:27:08Z</time>
      </trkpt>
      <trkpt lat="43.1777" lon="6.62621">
        <ele>3.181</ele>
        <time>2010-05-01T12:27:36Z</time>
      </trkpt>
      <trkpt lat="43.1777" lon="6.62621">
        <ele>3.542</ele>
        <time>2010-05-01T12:27:46Z</time>
      </trkpt>
      <trkpt lat="43.17767" lon="6.62604">
        <ele>4.39</ele>
        <time>2010-05-01T12:27:59Z</time>
      </trkpt>
      <trkpt lat="43.17755" lon="6.62575">
        <ele>5.729</ele>
        <time>2010-05-01T12:28:20Z</time>
      </trkpt>
      <trkpt lat="43.17754" lon="6.62566">
        <ele>5.877</ele>
        <time>2010-05-01T12:28:27Z</time>
      </trkpt>
      <trkpt lat="43.1776" lon="6.62529">
        <ele>2.689</ele>
        <time>2010-05-01T12:28:51Z</time>
      </trkpt>
      <trkpt lat="43.17761" lon="6.62519">
        <ele>2.021</ele>
        <time>2010-05-01T12:28:58Z</time>
      </trkpt>
      <trkpt lat="43.17759" lon="6.62513">
        <ele>1.939</ele>
        <time>2010-05-01T12:29:02Z</time>
      </trkpt>
      <trkpt lat="43.17761" lon="6.62505">
        <ele>1.585</ele>
        <time>2010-05-01T12:29:07Z</time>
      </trkpt>
      <trkpt lat="43.17761" lon="6.6248">
        <ele>1.614</ele>
        <time>2010-05-01T12:29:30Z</time>
      </trkpt>
      <trkpt lat="43.17764" lon="6.62467">
        <ele>0.746</ele>
        <time>2010-05-01T12:29:39Z</time>
      </trkpt>
      <trkpt lat="43.17764" lon="6.62458">
        <ele>-0.398</ele>
        <time>2010-05-01T12:29:45Z</time>
      </trkpt>
      <trkpt lat="43.17764" lon="6.62455">
        <ele>-0.985</ele>
        <time>2010-05-01T12:29:47Z</time>
      </trkpt>
      <trkpt lat="43.17766" lon="6.62439">
        <ele>-3.003</ele>
        <time>2010-05-01T12:30:00Z</time>
      </trkpt>
      <trkpt lat="43.17762" lon="6.62405">
        <ele>-3.62</ele>
        <time>2010-05-01T12:30:25Z</time>
      </trkpt>
      <trkpt lat="43.17761" lon="6.62388">
        <ele>-5.568</ele>
        <time>2010-05-01T12:30:36Z</time>
      </trkpt>
      <trkpt lat="43.17756" lon="6.6235">
        <ele>-7.112</ele>
        <time>2010-05-01T12:31:03Z</time>
      </trkpt>
      <trkpt lat="43.17754" lon="6.62328">
        <ele>-8.36</ele>
        <time>2010-05-01T12:31:20Z</time>
      </trkpt>
      <trkpt lat="43.17751" lon="6.62312">
        <ele>-8.21</ele>
        <time>2010-05-01T12:31:30Z</time>
      </trkpt>
      <trkpt lat="43.17749" lon="6.62305">
        <ele>-7.72</ele>
        <time>2010-05-01T12:31:35Z</time>
      </trkpt>
      <trkpt lat="43.17735" lon="6.6227">
        <ele>-1.004</ele>
        <time>2010-05-01T12:32:01Z</time>
      </trkpt>
      <trkpt lat="43.17726" lon="6.62232">
        <ele>-4.313</ele>
        <time>2010-05-01T12:32:27Z</time>
      </trkpt>
      <trkpt lat="43.17724" lon="6.62223">
        <ele>-5.446</ele>
        <time>2010-05-01T12:32:33Z</time>
      </trkpt>
      <trkpt lat="43.17723" lon="6.62204">
        <ele>-7.831</ele>
        <time>2010-05-01T12:32:44Z</time>
      </trkpt>
      <trkpt lat="43.17715" lon="6.62163">
        <ele>-13.146</ele>
        <time>2010-05-01T12:33:08Z</time>
      </trkpt>
      <trkpt lat="43.17716" lon="6.62142">
        <ele>-11.905</ele>
        <time>2010-05-01T12:33:23Z</time>
      </trkpt>
      <trkpt lat="43.1771" lon="6.62101">
        <ele>5.548</ele>
        <time>2010-05-01T12:33:49Z</time>
      </trkpt>
      <trkpt lat="43.17704" lon="6.62076">
        <ele>7.991</ele>
        <time>2010-05-01T12:34:07Z</time>
      </trkpt>
      <trkpt lat="43.17693" lon="6.62045">
        <ele>13.944</ele>
        <time>2010-05-01T12:34:29Z</time>
      </trkpt>
      <trkpt lat="43.1769" lon="6.62009">
        <ele>21.128</ele>
        <time>2010-05-01T12:34:54Z</time>
      </trkpt>
      <trkpt lat="43.17691" lon="6.61987">
        <ele>25.476</ele>
        <time>2010-05-01T12:35:11Z</time>
      </trkpt>
      <trkpt lat="43.17692" lon="6.61975">
        <ele>27.305</ele>
        <time>2010-05-01T12:35:18Z</time>
      </trkpt>
      <trkpt lat="43.17691" lon="6.61971">
        <ele>30.005</ele>
        <time>2010-05-01T12:35:21Z</time>
      </trkpt>
      <trkpt lat="43.17701" lon="6.6194">
        <ele>31.208</ele>
        <time>2010-05-01T12:35:42Z</time>
      </trkpt>
      <trkpt lat="43.17702" lon="6.61935">
        <ele>31.119</ele>
        <time>2010-05-01T12:35:45Z</time>
      </trkpt>
      <trkpt lat="43.17698" lon="6.61904">
        <ele>30.277</ele>
        <time>2010-05-01T12:36:08Z</time>
      </trkpt>
      <trkpt lat="43.1769" lon="6.61898">
        <ele>29.734</ele>
        <time>2010-05-01T12:36:16Z</time>
      </trkpt>
      <trkpt lat="43.17674" lon="6.61878">
        <ele>33.892</ele>
        <time>2010-05-01T12:36:35Z</time>
      </trkpt>
      <trkpt lat="43.17671" lon="6.61867">
        <ele>33.698</ele>
        <time>2010-05-01T12:36:44Z</time>
      </trkpt>
      <trkpt lat="43.17666" lon="6.61847">
        <ele>32.724</ele>
        <time>2010-05-01T12:36:56Z</time>
      </trkpt>
      <trkpt lat="43.17666" lon="6.61843">
        <ele>32.403</ele>
        <time>2010-05-01T12:36:58Z</time>
      </trkpt>
      <trkpt lat="43.17653" lon="6.61827">
        <ele>32.41</ele>
        <time>2010-05-01T12:37:12Z</time>
      </trkpt>
      <trkpt lat="43.1765" lon="6.6182">
        <ele>31.528</ele>
        <time>2010-05-01T12:37:17Z</time>
      </trkpt>
      <trkpt lat="43.1765" lon="6.61815">
        <ele>30.934</ele>
        <time>2010-05-01T12:37:20Z</time>
      </trkpt>
      <trkpt lat="43.17636" lon="6.61787">
        <ele>29.321</ele>
        <time>2010-05-01T12:37:42Z</time>
      </trkpt>
      <trkpt lat="43.1762" lon="6.61771">
        <ele>30.431</ele>
        <time>2010-05-01T12:38:04Z</time>
      </trkpt>
      <trkpt lat="43.1761" lon="6.6177">
        <ele>29.351</ele>
        <time>2010-05-01T12:38:42Z</time>
      </trkpt>
      <trkpt lat="43.17608" lon="6.61769">
        <ele>30.091</ele>
        <time>2010-05-01T12:40:23Z</time>
      </trkpt>
      <trkpt lat="43.1761" lon="6.61766">
        <ele>30.758</ele>
        <time>2010-05-01T12:41:08Z</time>
      </trkpt>
      <trkpt lat="43.17604" lon="6.6176">
        <ele>37.535</ele>
        <time>2010-05-01T12:41:55Z</time>
      </trkpt>
      <trkpt lat="43.17601" lon="6.61754">
        <ele>37.451</ele>
        <time>2010-05-01T12:42:00Z</time>
      </trkpt>
      <trkpt lat="43.1759" lon="6.61742">
        <ele>36.638</ele>
        <time>2010-05-01T12:42:13Z</time>
      </trkpt>
      <trkpt lat="43.17577" lon="6.61729">
        <ele>34.028</ele>
        <time>2010-05-01T12:42:32Z</time>
      </trkpt>
      <trkpt lat="43.17571" lon="6.61724">
        <ele>32.862</ele>
        <time>2010-05-01T12:42:38Z</time>
      </trkpt>
      <trkpt lat="43.17566" lon="6.61708">
        <ele>31.387</ele>
        <time>2010-05-01T12:42:52Z</time>
      </trkpt>
      <trkpt lat="43.17566" lon="6.61705">
        <ele>30.956</ele>
        <time>2010-05-01T12:42:54Z</time>
      </trkpt>
      <trkpt lat="43.17565" lon="6.61696">
        <ele>30.212</ele>
        <time>2010-05-01T12:43:00Z</time>
      </trkpt>
      <trkpt lat="43.17558" lon="6.61685">
        <ele>30.179</ele>
        <time>2010-05-01T12:43:24Z</time>
      </trkpt>
      <trkpt lat="43.17552" lon="6.61668">
        <ele>32.195</ele>
        <time>2010-05-01T12:43:37Z</time>
      </trkpt>
      <trkpt lat="43.17552" lon="6.61665">
        <ele>32.376</ele>
        <time>2010-05-01T12:43:39Z</time>
      </trkpt>
      <trkpt lat="43.17552" lon="6.61658">
        <ele>32.992</ele>
        <time>2010-05-01T12:43:44Z</time>
      </trkpt>
      <trkpt lat="43.17552" lon="6.61652">
        <ele>33.312</ele>
        <time>2010-05-01T12:43:48Z</time>
      </trkpt>
      <trkpt lat="43.17547" lon="6.61642">
        <ele>39.847</ele>
        <time>2010-05-01T12:43:58Z</time>
      </trkpt>
      <trkpt lat="43.17546" lon="6.61635">
        <ele>39.814</ele>
        <time>2010-05-01T12:44:04Z</time>
      </trkpt>
      <trkpt lat="43.17545" lon="6.61629">
        <ele>39.846</ele>
        <time>2010-05-01T12:44:08Z</time>
      </trkpt>
      <trkpt lat="43.17533" lon="6.61587">
        <ele>40.52</ele>
        <time>2010-05-01T12:44:37Z</time>
      </trkpt>
      <trkpt lat="43.17532" lon="6.61584">
        <ele>40.533</ele>
        <time>2010-05-01T12:44:39Z</time>
      </trkpt>
      <trkpt lat="43.17531" lon="6.6158">
        <ele>40.52</ele>
        <time>2010-05-01T12:44:42Z</time>
      </trkpt>
      <trkpt lat="43.17531" lon="6.61568">
        <ele>39.426</ele>
        <time>2010-05-01T12:44:51Z</time>
      </trkpt>
      <trkpt lat="43.17526" lon="6.61553">
        <ele>38.162</ele>
        <time>2010-05-01T12:45:01Z</time>
      </trkpt>
      <trkpt lat="43.17525" lon="6.61548">
        <ele>37.761</ele>
        <time>2010-05-01T12:45:04Z</time>
      </trkpt>
      <trkpt lat="43.17523" lon="6.61544">
        <ele>37.21</ele>
        <time>2010-05-01T12:45:07Z</time>
      </trkpt>
      <trkpt lat="43.17519" lon="6.6154">
        <ele>36.668</ele>
        <time>2010-05-01T12:45:10Z</time>
      </trkpt>
      <trkpt lat="43.17512" lon="6.61532">
        <ele>35.406</ele>
        <time>2010-05-01T12:45:17Z</time>
      </trkpt>
      <trkpt lat="43.17509" lon="6.61525">
        <ele>34.584</ele>
        <time>2010-05-01T12:45:22Z</time>
      </trkpt>
      <trkpt lat="43.17502" lon="6.6151">
        <ele>32.661</ele>
        <time>2010-05-01T12:45:33Z</time>
      </trkpt>
      <trkpt lat="43.17498" lon="6.61505">
        <ele>31.743</ele>
        <time>2010-05-01T12:45:38Z</time>
      </trkpt>
      <trkpt lat="43.17481" lon="6.61479">
        <ele>32.475</ele>
        <time>2010-05-01T12:46:01Z</time>
      </trkpt>
      <trkpt lat="43.1746" lon="6.61441">
        <ele>29.237</ele>
        <time>2010-05-01T12:46:28Z</time>
      </trkpt>
      <trkpt lat="43.17434" lon="6.61411">
        <ele>27.91</ele>
        <time>2010-05-01T12:46:58Z</time>
      </trkpt>
      <trkpt lat="43.17431" lon="6.61406">
        <ele>27.758</ele>
        <time>2010-05-01T12:47:01Z</time>
      </trkpt>
      <trkpt lat="43.17419" lon="6.61387">
        <ele>23.908</ele>
        <time>2010-05-01T12:47:35Z</time>
      </trkpt>
      <trkpt lat="43.17415" lon="6.6135">
        <ele>17.534</ele>
        <time>2010-05-01T12:48:15Z</time>
      </trkpt>
      <trkpt lat="43.17406" lon="6.6133">
        <ele>13.008</ele>
        <time>2010-05-01T12:48:51Z</time>
      </trkpt>
      <trkpt lat="43.17392" lon="6.6131">
        <ele>8.6</ele>
        <time>2010-05-01T12:49:16Z</time>
      </trkpt>
      <trkpt lat="43.17387" lon="6.61293">
        <ele>10.154</ele>
        <time>2010-05-01T12:49:33Z</time>
      </trkpt>
      <trkpt lat="43.17386" lon="6.61291">
        <ele>10.064</ele>
        <time>2010-05-01T12:49:35Z</time>
      </trkpt>
      <trkpt lat="43.17385" lon="6.61285">
        <ele>10.136</ele>
        <time>2010-05-01T12:49:39Z</time>
      </trkpt>
      <trkpt lat="43.17376" lon="6.6125">
        <ele>7.924</ele>
        <time>2010-05-01T12:50:07Z</time>
      </trkpt>
      <trkpt lat="43.17375" lon="6.61222">
        <ele>4.315</ele>
        <time>2010-05-01T12:50:34Z</time>
      </trkpt>
      <trkpt lat="43.17374" lon="6.612">
        <ele>2.578</ele>
        <time>2010-05-01T12:50:53Z</time>
      </trkpt>
      <trkpt lat="43.17372" lon="6.61174">
        <ele>3.428</ele>
        <time>2010-05-01T12:51:14Z</time>
      </trkpt>
      <trkpt lat="43.17372" lon="6.6117">
        <ele>3.46</ele>
        <time>2010-05-01T12:51:17Z</time>
      </trkpt>
      <trkpt lat="43.17368" lon="6.61133">
        <ele>5.104</ele>
        <time>2010-05-01T12:51:45Z</time>
      </trkpt>
      <trkpt lat="43.17368" lon="6.6113">
        <ele>5.272</ele>
        <time>2010-05-01T12:51:47Z</time>
      </trkpt>
      <trkpt lat="43.17367" lon="6.61125">
        <ele>5.385</ele>
        <time>2010-05-01T12:51:50Z</time>
      </trkpt>
      <trkpt lat="43.17371" lon="6.61119">
        <ele>5.51</ele>
        <time>2010-05-01T12:51:54Z</time>
      </trkpt>
      <trkpt lat="43.1736" lon="6.61101">
        <ele>4.097</ele>
        <time>2010-05-01T12:52:13Z</time>
      </trkpt>
      <trkpt lat="43.17358" lon="6.61078">
        <ele>3.275</ele>
        <time>2010-05-01T12:52:30Z</time>
      </trkpt>
      <trkpt lat="43.17358" lon="6.61075">
        <ele>3.171</ele>
        <time>2010-05-01T12:52:32Z</time>
      </trkpt>
      <trkpt lat="43.17359" lon="6.61072">
        <ele>3.002</ele>
        <time>2010-05-01T12:52:34Z</time>
      </trkpt>
      <trkpt lat="43.17363" lon="6.61043">
        <ele>1.392</ele>
        <time>2010-05-01T12:52:53Z</time>
      </trkpt>
      <trkpt lat="43.17364" lon="6.61017">
        <ele>-0.605</ele>
        <time>2010-05-01T12:53:14Z</time>
      </trkpt>
      <trkpt lat="43.17366" lon="6.61017">
        <ele>0.094</ele>
        <time>2010-05-01T12:53:21Z</time>
      </trkpt>
      <trkpt lat="43.17374" lon="6.61">
        <ele>2.248</ele>
        <time>2010-05-01T12:53:38Z</time>
      </trkpt>
      <trkpt lat="43.17382" lon="6.60994">
        <ele>3.013</ele>
        <time>2010-05-01T12:53:48Z</time>
      </trkpt>
      <trkpt lat="43.174" lon="6.60974">
        <ele>3.617</ele>
        <time>2010-05-01T12:54:08Z</time>
      </trkpt>
      <trkpt lat="43.17411" lon="6.60968">
        <ele>5.712</ele>
        <time>2010-05-01T12:54:25Z</time>
      </trkpt>
      <trkpt lat="43.17426" lon="6.60956">
        <ele>11.508</ele>
        <time>2010-05-01T12:54:47Z</time>
      </trkpt>
      <trkpt lat="43.17438" lon="6.60939">
        <ele>15.645</ele>
        <time>2010-05-01T12:55:01Z</time>
      </trkpt>
      <trkpt lat="43.17458" lon="6.60914">
        <ele>19.487</ele>
        <time>2010-05-01T12:55:24Z</time>
      </trkpt>
      <trkpt lat="43.17457" lon="6.60902">
        <ele>21.249</ele>
        <time>2010-05-01T12:55:30Z</time>
      </trkpt>
      <trkpt lat="43.17451" lon="6.60871">
        <ele>26.118</ele>
        <time>2010-05-01T12:55:45Z</time>
      </trkpt>
      <trkpt lat="43.17446" lon="6.60853">
        <ele>26.495</ele>
        <time>2010-05-01T12:56:00Z</time>
      </trkpt>
      <trkpt lat="43.17445" lon="6.6085">
        <ele>26.56</ele>
        <time>2010-05-01T12:56:02Z</time>
      </trkpt>
      <trkpt lat="43.17444" lon="6.60847">
        <ele>26.872</ele>
        <time>2010-05-01T12:56:04Z</time>
      </trkpt>
      <trkpt lat="43.17443" lon="6.60825">
        <ele>31.938</ele>
        <time>2010-05-01T12:56:22Z</time>
      </trkpt>
      <trkpt lat="43.17451" lon="6.60811">
        <ele>33.157</ele>
        <time>2010-05-01T12:56:35Z</time>
      </trkpt>
      <trkpt lat="43.17457" lon="6.60804">
        <ele>34.354</ele>
        <time>2010-05-01T12:56:44Z</time>
      </trkpt>
      <trkpt lat="43.1747" lon="6.6079">
        <ele>36.394</ele>
        <time>2010-05-01T12:57:01Z</time>
      </trkpt>
      <trkpt lat="43.17479" lon="6.60783">
        <ele>37.13</ele>
        <time>2010-05-01T12:57:11Z</time>
      </trkpt>
      <trkpt lat="43.17483" lon="6.6078">
        <ele>36.559</ele>
        <time>2010-05-01T12:57:15Z</time>
      </trkpt>
      <trkpt lat="43.17513" lon="6.60765">
        <ele>36.403</ele>
        <time>2010-05-01T12:57:43Z</time>
      </trkpt>
      <trkpt lat="43.17526" lon="6.60754">
        <ele>35.148</ele>
        <time>2010-05-01T12:57:55Z</time>
      </trkpt>
      <trkpt lat="43.17536" lon="6.60746">
        <ele>34.699</ele>
        <time>2010-05-01T12:58:05Z</time>
      </trkpt>
      <trkpt lat="43.17538" lon="6.60745">
        <ele>34.525</ele>
        <time>2010-05-01T12:58:07Z</time>
      </trkpt>
      <trkpt lat="43.17562" lon="6.60736">
        <ele>31.194</ele>
        <time>2010-05-01T12:58:28Z</time>
      </trkpt>
      <trkpt lat="43.17584" lon="6.60726">
        <ele>29.71</ele>
        <time>2010-05-01T12:58:49Z</time>
      </trkpt>
      <trkpt lat="43.17587" lon="6.60722">
        <ele>30.043</ele>
        <time>2010-05-01T12:58:53Z</time>
      </trkpt>
      <trkpt lat="43.17601" lon="6.60691">
        <ele>34.819</ele>
        <time>2010-05-01T12:59:14Z</time>
      </trkpt>
      <trkpt lat="43.1761" lon="6.60665">
        <ele>36.272</ele>
        <time>2010-05-01T12:59:34Z</time>
      </trkpt>
      <trkpt lat="43.1764" lon="6.60648">
        <ele>37.368</ele>
        <time>2010-05-01T13:00:06Z</time>
      </trkpt>
      <trkpt lat="43.17654" lon="6.60654">
        <ele>37.104</ele>
        <time>2010-05-01T13:00:21Z</time>
      </trkpt>
      <trkpt lat="43.17678" lon="6.60677">
        <ele>37.733</ele>
        <time>2010-05-01T13:00:43Z</time>
      </trkpt>
      <trkpt lat="43.17683" lon="6.60683">
        <ele>36.68</ele>
        <time>2010-05-01T13:00:49Z</time>
      </trkpt>
      <trkpt lat="43.17685" lon="6.60685">
        <ele>36.507</ele>
        <time>2010-05-01T13:00:51Z</time>
      </trkpt>
      <trkpt lat="43.17686" lon="6.60689">
        <ele>35.751</ele>
        <time>2010-05-01T13:00:54Z</time>
      </trkpt>
      <trkpt lat="43.17691" lon="6.60698">
        <ele>36.204</ele>
        <time>2010-05-01T13:01:02Z</time>
      </trkpt>
      <trkpt lat="43.17723" lon="6.60718">
        <ele>37.257</ele>
        <time>2010-05-01T13:01:30Z</time>
      </trkpt>
      <trkpt lat="43.17744" lon="6.60724">
        <ele>34.351</ele>
        <time>2010-05-01T13:01:50Z</time>
      </trkpt>
      <trkpt lat="43.17747" lon="6.60728">
        <ele>34.778</ele>
        <time>2010-05-01T13:02:21Z</time>
      </trkpt>
      <trkpt lat="43.17766" lon="6.60727">
        <ele>37.981</ele>
        <time>2010-05-01T13:02:58Z</time>
      </trkpt>
      <trkpt lat="43.17777" lon="6.60729">
        <ele>39.205</ele>
        <time>2010-05-01T13:03:06Z</time>
      </trkpt>
      <trkpt lat="43.17783" lon="6.60728">
        <ele>39.592</ele>
        <time>2010-05-01T13:03:12Z</time>
      </trkpt>
      <trkpt lat="43.17802" lon="6.60729">
        <ele>46.482</ele>
        <time>2010-05-01T13:03:40Z</time>
      </trkpt>
      <trkpt lat="43.17832" lon="6.60733">
        <ele>44.832</ele>
        <time>2010-05-01T13:04:05Z</time>
      </trkpt>
      <trkpt lat="43.17834" lon="6.60733">
        <ele>44.828</ele>
        <time>2010-05-01T13:04:07Z</time>
      </trkpt>
      <trkpt lat="43.17855" lon="6.60732">
        <ele>43.613</ele>
        <time>2010-05-01T13:04:25Z</time>
      </trkpt>
      <trkpt lat="43.17864" lon="6.60733">
        <ele>46.049</ele>
        <time>2010-05-01T13:04:32Z</time>
      </trkpt>
      <trkpt lat="43.1788" lon="6.60727">
        <ele>49.38</ele>
        <time>2010-05-01T13:04:50Z</time>
      </trkpt>
      <trkpt lat="43.17887" lon="6.60723">
        <ele>51.151</ele>
        <time>2010-05-01T13:04:56Z</time>
      </trkpt>
      <trkpt lat="43.17901" lon="6.60714">
        <ele>58.572</ele>
        <time>2010-05-01T13:05:20Z</time>
      </trkpt>
      <trkpt lat="43.17932" lon="6.60711">
        <ele>51.815</ele>
        <time>2010-05-01T13:05:42Z</time>
      </trkpt>
      <trkpt lat="43.17962" lon="6.60706">
        <ele>41.705</ele>
        <time>2010-05-01T13:06:04Z</time>
      </trkpt>
      <trkpt lat="43.17965" lon="6.60706">
        <ele>40.305</ele>
        <time>2010-05-01T13:06:06Z</time>
      </trkpt>
      <trkpt lat="43.17969" lon="6.60706">
        <ele>38.271</ele>
        <time>2010-05-01T13:06:13Z</time>
      </trkpt>
      <trkpt lat="43.17992" lon="6.60702">
        <ele>33.512</ele>
        <time>2010-05-01T13:06:34Z</time>
      </trkpt>
      <trkpt lat="43.18005" lon="6.60694">
        <ele>31.654</ele>
        <time>2010-05-01T13:06:58Z</time>
      </trkpt>
      <trkpt lat="43.18035" lon="6.60668">
        <ele>32.846</ele>
        <time>2010-05-01T13:07:30Z</time>
      </trkpt>
      <trkpt lat="43.18076" lon="6.60652">
        <ele>23.079</ele>
        <time>2010-05-01T13:07:59Z</time>
      </trkpt>
      <trkpt lat="43.18115" lon="6.60652">
        <ele>6.839</ele>
        <time>2010-05-01T13:08:22Z</time>
      </trkpt>
      <trkpt lat="43.18121" lon="6.60644">
        <ele>9.149</ele>
        <time>2010-05-01T13:08:32Z</time>
      </trkpt>
      <trkpt lat="43.18122" lon="6.60639">
        <ele>8.33</ele>
        <time>2010-05-01T13:08:36Z</time>
      </trkpt>
      <trkpt lat="43.18123" lon="6.60637">
        <ele>8.013</ele>
        <time>2010-05-01T13:08:38Z</time>
      </trkpt>
      <trkpt lat="43.18132" lon="6.60621">
        <ele>13.087</ele>
        <time>2010-05-01T13:08:57Z</time>
      </trkpt>
      <trkpt lat="43.1814" lon="6.60616">
        <ele>20.037</ele>
        <time>2010-05-01T13:09:09Z</time>
      </trkpt>
      <trkpt lat="43.18162" lon="6.60633">
        <ele>22.373</ele>
        <time>2010-05-01T13:09:28Z</time>
      </trkpt>
      <trkpt lat="43.18181" lon="6.60637">
        <ele>26.361</ele>
        <time>2010-05-01T13:09:52Z</time>
      </trkpt>
      <trkpt lat="43.18184" lon="6.60639">
        <ele>26.315</ele>
        <time>2010-05-01T13:09:56Z</time>
      </trkpt>
      <trkpt lat="43.18187" lon="6.60642">
        <ele>25.634</ele>
        <time>2010-05-01T13:09:58Z</time>
      </trkpt>
      <trkpt lat="43.18195" lon="6.6065">
        <ele>24.736</ele>
        <time>2010-05-01T13:10:07Z</time>
      </trkpt>
      <trkpt lat="43.18219" lon="6.60658">
        <ele>23.815</ele>
        <time>2010-05-01T13:10:29Z</time>
      </trkpt>
      <trkpt lat="43.18225" lon="6.60658">
        <ele>27.834</ele>
        <time>2010-05-01T13:10:37Z</time>
      </trkpt>
      <trkpt lat="43.18241" lon="6.60628">
        <ele>33.267</ele>
        <time>2010-05-01T13:11:02Z</time>
      </trkpt>
      <trkpt lat="43.18251" lon="6.60608">
        <ele>33.988</ele>
        <time>2010-05-01T13:11:24Z</time>
      </trkpt>
      <trkpt lat="43.18263" lon="6.6058">
        <ele>35.87</ele>
        <time>2010-05-01T13:11:45Z</time>
      </trkpt>
      <trkpt lat="43.18264" lon="6.60575">
        <ele>35.883</ele>
        <time>2010-05-01T13:11:48Z</time>
      </trkpt>
      <trkpt lat="43.18263" lon="6.60564">
        <ele>36.599</ele>
        <time>2010-05-01T13:11:53Z</time>
      </trkpt>
      <trkpt lat="43.18273" lon="6.60551">
        <ele>37.637</ele>
        <time>2010-05-01T13:12:06Z</time>
      </trkpt>
      <trkpt lat="43.18278" lon="6.60548">
        <ele>37.534</ele>
        <time>2010-05-01T13:12:10Z</time>
      </trkpt>
      <trkpt lat="43.18289" lon="6.60533">
        <ele>38.49</ele>
        <time>2010-05-01T13:12:23Z</time>
      </trkpt>
      <trkpt lat="43.18296" lon="6.60492">
        <ele>32.251</ele>
        <time>2010-05-01T13:12:49Z</time>
      </trkpt>
      <trkpt lat="43.18296" lon="6.60487">
        <ele>32.254</ele>
        <time>2010-05-01T13:12:52Z</time>
      </trkpt>
      <trkpt lat="43.18302" lon="6.60454">
        <ele>28.389</ele>
        <time>2010-05-01T13:13:16Z</time>
      </trkpt>
      <trkpt lat="43.18303" lon="6.60448">
        <ele>28.634</ele>
        <time>2010-05-01T13:13:20Z</time>
      </trkpt>
      <trkpt lat="43.18309" lon="6.60434">
        <ele>27.82</ele>
        <time>2010-05-01T13:13:30Z</time>
      </trkpt>
      <trkpt lat="43.18317" lon="6.60419">
        <ele>27.885</ele>
        <time>2010-05-01T13:13:43Z</time>
      </trkpt>
      <trkpt lat="43.18326" lon="6.60409">
        <ele>24.663</ele>
        <time>2010-05-01T13:14:06Z</time>
      </trkpt>
      <trkpt lat="43.18327" lon="6.60404">
        <ele>24.858</ele>
        <time>2010-05-01T13:14:26Z</time>
      </trkpt>
      <trkpt lat="43.18334" lon="6.60402">
        <ele>24.316</ele>
        <time>2010-05-01T13:14:32Z</time>
      </trkpt>
      <trkpt lat="43.18339" lon="6.60402">
        <ele>24.046</ele>
        <time>2010-05-01T13:14:35Z</time>
      </trkpt>
      <trkpt lat="43.18347" lon="6.60401">
        <ele>23.882</ele>
        <time>2010-05-01T13:14:45Z</time>
      </trkpt>
      <trkpt lat="43.18368" lon="6.60408">
        <ele>28.266</ele>
        <time>2010-05-01T13:15:09Z</time>
      </trkpt>
      <trkpt lat="43.18378" lon="6.60417">
        <ele>31.253</ele>
        <time>2010-05-01T13:15:38Z</time>
      </trkpt>
      <trkpt lat="43.18392" lon="6.60444">
        <ele>25.999</ele>
        <time>2010-05-01T13:16:03Z</time>
      </trkpt>
      <trkpt lat="43.18416" lon="6.60448">
        <ele>27.511</ele>
        <time>2010-05-01T13:16:23Z</time>
      </trkpt>
      <trkpt lat="43.18427" lon="6.60447">
        <ele>26.483</ele>
        <time>2010-05-01T13:16:30Z</time>
      </trkpt>
      <trkpt lat="43.18445" lon="6.60439">
        <ele>22.014</ele>
        <time>2010-05-01T13:16:45Z</time>
      </trkpt>
      <trkpt lat="43.1845" lon="6.60422">
        <ele>17.339</ele>
        <time>2010-05-01T13:16:59Z</time>
      </trkpt>
      <trkpt lat="43.18451" lon="6.60412">
        <ele>17.746</ele>
        <time>2010-05-01T13:17:05Z</time>
      </trkpt>
      <trkpt lat="43.18451" lon="6.60407">
        <ele>15.416</ele>
        <time>2010-05-01T13:17:08Z</time>
      </trkpt>
      <trkpt lat="43.18454" lon="6.60395">
        <ele>14.623</ele>
        <time>2010-05-01T13:17:17Z</time>
      </trkpt>
      <trkpt lat="43.18449" lon="6.60367">
        <ele>14.226</ele>
        <time>2010-05-01T13:17:37Z</time>
      </trkpt>
      <trkpt lat="43.18448" lon="6.60364">
        <ele>14.054</ele>
        <time>2010-05-01T13:17:39Z</time>
      </trkpt>
      <trkpt lat="43.18445" lon="6.60361">
        <ele>14.247</ele>
        <time>2010-05-01T13:17:43Z</time>
      </trkpt>
      <trkpt lat="43.18442" lon="6.60356">
        <ele>14.454</ele>
        <time>2010-05-01T13:17:46Z</time>
      </trkpt>
      <trkpt lat="43.18439" lon="6.60347">
        <ele>14.889</ele>
        <time>2010-05-01T13:17:52Z</time>
      </trkpt>
      <trkpt lat="43.18436" lon="6.60335">
        <ele>13.538</ele>
        <time>2010-05-01T13:18:11Z</time>
      </trkpt>
      <trkpt lat="43.18432" lon="6.60335">
        <ele>12.912</ele>
        <time>2010-05-01T13:18:18Z</time>
      </trkpt>
      <trkpt lat="43.18433" lon="6.60333">
        <ele>12.723</ele>
        <time>2010-05-01T13:18:20Z</time>
      </trkpt>
      <trkpt lat="43.18426" lon="6.60327">
        <ele>11.74</ele>
        <time>2010-05-01T13:18:41Z</time>
      </trkpt>
      <trkpt lat="43.18421" lon="6.60316">
        <ele>10.983</ele>
        <time>2010-05-01T13:19:03Z</time>
      </trkpt>
      <trkpt lat="43.18405" lon="6.60283">
        <ele>9.512</ele>
        <time>2010-05-01T13:19:31Z</time>
      </trkpt>
      <trkpt lat="43.18404" lon="6.60275">
        <ele>10.143</ele>
        <time>2010-05-01T13:19:35Z</time>
      </trkpt>
      <trkpt lat="43.184" lon="6.60258">
        <ele>8.829</ele>
        <time>2010-05-01T13:20:01Z</time>
      </trkpt>
      <trkpt lat="43.18397" lon="6.60232">
        <ele>7.554</ele>
        <time>2010-05-01T13:21:05Z</time>
      </trkpt>
      <trkpt lat="43.18394" lon="6.60212">
        <ele>6.673</ele>
        <time>2010-05-01T13:21:21Z</time>
      </trkpt>
      <trkpt lat="43.18384" lon="6.60206">
        <ele>4.168</ele>
        <time>2010-05-01T13:21:34Z</time>
      </trkpt>
      <trkpt lat="43.18364" lon="6.60177">
        <ele>3.685</ele>
        <time>2010-05-01T13:21:58Z</time>
      </trkpt>
      <trkpt lat="43.18362" lon="6.60176">
        <ele>3.893</ele>
        <time>2010-05-01T13:22:00Z</time>
      </trkpt>
      <trkpt lat="43.18345" lon="6.60159">
        <ele>2.828</ele>
        <time>2010-05-01T13:22:24Z</time>
      </trkpt>
      <trkpt lat="43.18344" lon="6.60158">
        <ele>2.95</ele>
        <time>2010-05-01T13:22:25Z</time>
      </trkpt>
      <trkpt lat="43.18345" lon="6.60147">
        <ele>2.211</ele>
        <time>2010-05-01T13:22:34Z</time>
      </trkpt>
      <trkpt lat="43.18351" lon="6.60138">
        <ele>-1.668</ele>
        <time>2010-05-01T13:22:57Z</time>
      </trkpt>
      <trkpt lat="43.18355" lon="6.60131">
        <ele>-2.98</ele>
        <time>2010-05-01T13:23:03Z</time>
      </trkpt>
      <trkpt lat="43.18365" lon="6.60105">
        <ele>-6.416</ele>
        <time>2010-05-01T13:23:34Z</time>
      </trkpt>
      <trkpt lat="43.18377" lon="6.60076">
        <ele>-4.701</ele>
        <time>2010-05-01T13:24:02Z</time>
      </trkpt>
      <trkpt lat="43.1838" lon="6.60072">
        <ele>-4.922</ele>
        <time>2010-05-01T13:24:07Z</time>
      </trkpt>
      <trkpt lat="43.18384" lon="6.60055">
        <ele>-5.811</ele>
        <time>2010-05-01T13:24:29Z</time>
      </trkpt>
    </trkseg>
  </trk>
</gpx>